<?xml version="1.0" encoding="UTF-8" standalone="no" ?>
<gpx xmlns="http://www.topografix.com/GPX/1/1" xmlns:xsi="http://www.w3.org/2001/XMLSchema-instance" xsi:schemaLocation="http://www.topografix.com/GPX/1/1 http://www.topografix.com/GPX/1/1/gpx.xsd" version="1.1" creator="VisuGPX - https://www.visugpx.com">
  <metadata>
    <name>RRaTT - 25 janvier 2012</name>
    <desc><![CDATA[Balade du midi avec Stef et Nico]]></desc>
  </metadata>
  <trk>
    <name><![CDATA[Trois Moulins]]></name>
    <cmt><![CDATA[Balade du midi avec Nico et Stef.]]></cmt>
    <trkseg>
      <trkpt lat="43.61516" lon="7.08669">
        <ele>108.49214172363</ele>
        <time>2012-01-25T11:13:36Z</time>
      </trkpt>
      <trkpt lat="43.61498" lon="7.08667">
        <ele>107.90849304199</ele>
        <time>2012-01-25T11:13:42Z</time>
      </trkpt>
      <trkpt lat="43.61483" lon="7.08665">
        <ele>107.46217346191</ele>
        <time>2012-01-25T11:13:47Z</time>
      </trkpt>
      <trkpt lat="43.61479" lon="7.08661">
        <ele>107.44672393799</ele>
        <time>2012-01-25T11:13:49Z</time>
      </trkpt>
      <trkpt lat="43.61479" lon="7.08658">
        <ele>107.535987854</ele>
        <time>2012-01-25T11:13:50Z</time>
      </trkpt>
      <trkpt lat="43.61484" lon="7.0865">
        <ele>108.00634002685</ele>
        <time>2012-01-25T11:13:53Z</time>
      </trkpt>
      <trkpt lat="43.61485" lon="7.08647">
        <ele>108.17113494873</ele>
        <time>2012-01-25T11:13:54Z</time>
      </trkpt>
      <trkpt lat="43.61491" lon="7.08632">
        <ele>108.67645263672</ele>
        <time>2012-01-25T11:13:58Z</time>
      </trkpt>
      <trkpt lat="43.615" lon="7.08603">
        <ele>109.30660247803</ele>
        <time>2012-01-25T11:14:03Z</time>
      </trkpt>
      <trkpt lat="43.61508" lon="7.08566">
        <ele>110.90133666992</ele>
        <time>2012-01-25T11:14:08Z</time>
      </trkpt>
      <trkpt lat="43.6151" lon="7.08558">
        <ele>111.28242492676</ele>
        <time>2012-01-25T11:14:09Z</time>
      </trkpt>
      <trkpt lat="43.61518" lon="7.0853">
        <ele>112.22018432617</ele>
        <time>2012-01-25T11:14:12Z</time>
      </trkpt>
      <trkpt lat="43.61519" lon="7.08519">
        <ele>112.48110198975</ele>
        <time>2012-01-25T11:14:13Z</time>
      </trkpt>
      <trkpt lat="43.61522" lon="7.08483">
        <ele>113.401512146</ele>
        <time>2012-01-25T11:14:16Z</time>
      </trkpt>
      <trkpt lat="43.61523" lon="7.0847">
        <ele>113.88967895508</ele>
        <time>2012-01-25T11:14:17Z</time>
      </trkpt>
      <trkpt lat="43.61528" lon="7.08445">
        <ele>114.98766326904</ele>
        <time>2012-01-25T11:14:19Z</time>
      </trkpt>
      <trkpt lat="43.61546" lon="7.08416">
        <ele>116.66772460938</ele>
        <time>2012-01-25T11:14:22Z</time>
      </trkpt>
      <trkpt lat="43.61553" lon="7.08407">
        <ele>116.90118408203</ele>
        <time>2012-01-25T11:14:23Z</time>
      </trkpt>
      <trkpt lat="43.61575" lon="7.08378">
        <ele>117.81240081787</ele>
        <time>2012-01-25T11:14:27Z</time>
      </trkpt>
      <trkpt lat="43.61586" lon="7.08346">
        <ele>118.32774353027</ele>
        <time>2012-01-25T11:14:31Z</time>
      </trkpt>
      <trkpt lat="43.61588" lon="7.08337">
        <ele>118.5041809082</ele>
        <time>2012-01-25T11:14:32Z</time>
      </trkpt>
      <trkpt lat="43.61589" lon="7.08329">
        <ele>118.78488922119</ele>
        <time>2012-01-25T11:14:33Z</time>
      </trkpt>
      <trkpt lat="43.61591" lon="7.08313">
        <ele>119.6025390625</ele>
        <time>2012-01-25T11:14:35Z</time>
      </trkpt>
      <trkpt lat="43.61591" lon="7.08297">
        <ele>120.32465362549</ele>
        <time>2012-01-25T11:14:37Z</time>
      </trkpt>
      <trkpt lat="43.61591" lon="7.08289">
        <ele>120.60102844238</ele>
        <time>2012-01-25T11:14:38Z</time>
      </trkpt>
      <trkpt lat="43.61585" lon="7.0827">
        <ele>121.01574707031</ele>
        <time>2012-01-25T11:14:41Z</time>
      </trkpt>
      <trkpt lat="43.61582" lon="7.08265">
        <ele>120.97086334228</ele>
        <time>2012-01-25T11:14:42Z</time>
      </trkpt>
      <trkpt lat="43.61575" lon="7.08249">
        <ele>121.02639770508</ele>
        <time>2012-01-25T11:14:45Z</time>
      </trkpt>
      <trkpt lat="43.61572" lon="7.08239">
        <ele>121.23818206787</ele>
        <time>2012-01-25T11:14:47Z</time>
      </trkpt>
      <trkpt lat="43.61559" lon="7.08199">
        <ele>121.96118927002</ele>
        <time>2012-01-25T11:14:56Z</time>
      </trkpt>
      <trkpt lat="43.61547" lon="7.08165">
        <ele>121.70892333984</ele>
        <time>2012-01-25T11:15:04Z</time>
      </trkpt>
      <trkpt lat="43.61533" lon="7.08137">
        <ele>121.20148468018</ele>
        <time>2012-01-25T11:15:11Z</time>
      </trkpt>
      <trkpt lat="43.61514" lon="7.08108">
        <ele>120.50042724609</ele>
        <time>2012-01-25T11:15:19Z</time>
      </trkpt>
      <trkpt lat="43.61499" lon="7.08079">
        <ele>119.6887588501</ele>
        <time>2012-01-25T11:15:27Z</time>
      </trkpt>
      <trkpt lat="43.61496" lon="7.0807">
        <ele>118.81519317627</ele>
        <time>2012-01-25T11:15:32Z</time>
      </trkpt>
      <trkpt lat="43.61495" lon="7.08069">
        <ele>118.70887756348</ele>
        <time>2012-01-25T11:15:51Z</time>
      </trkpt>
      <trkpt lat="43.61495" lon="7.08066">
        <ele>118.6137008667</ele>
        <time>2012-01-25T11:15:52Z</time>
      </trkpt>
      <trkpt lat="43.61493" lon="7.08052">
        <ele>117.80323791504</ele>
        <time>2012-01-25T11:15:55Z</time>
      </trkpt>
      <trkpt lat="43.61482" lon="7.08046">
        <ele>116.0419921875</ele>
        <time>2012-01-25T11:15:57Z</time>
      </trkpt>
      <trkpt lat="43.61476" lon="7.08043">
        <ele>115.04120635986</ele>
        <time>2012-01-25T11:15:58Z</time>
      </trkpt>
      <trkpt lat="43.61438" lon="7.08021">
        <ele>111.50769042969</ele>
        <time>2012-01-25T11:16:03Z</time>
      </trkpt>
      <trkpt lat="43.61385" lon="7.07987">
        <ele>107.74487304688</ele>
        <time>2012-01-25T11:16:09Z</time>
      </trkpt>
      <trkpt lat="43.61336" lon="7.07945">
        <ele>105.15727996826</ele>
        <time>2012-01-25T11:16:15Z</time>
      </trkpt>
      <trkpt lat="43.61328" lon="7.07938">
        <ele>104.35364532471</ele>
        <time>2012-01-25T11:16:16Z</time>
      </trkpt>
      <trkpt lat="43.6128" lon="7.07894">
        <ele>101.25863647461</ele>
        <time>2012-01-25T11:16:22Z</time>
      </trkpt>
      <trkpt lat="43.61265" lon="7.07878">
        <ele>100.72325134277</ele>
        <time>2012-01-25T11:16:24Z</time>
      </trkpt>
      <trkpt lat="43.6125" lon="7.07861">
        <ele>100.89695739746</ele>
        <time>2012-01-25T11:16:26Z</time>
      </trkpt>
      <trkpt lat="43.61242" lon="7.07855">
        <ele>98.959686279297</ele>
        <time>2012-01-25T11:16:27Z</time>
      </trkpt>
      <trkpt lat="43.61225" lon="7.07841">
        <ele>93.647453308105</ele>
        <time>2012-01-25T11:16:29Z</time>
      </trkpt>
      <trkpt lat="43.61217" lon="7.07808">
        <ele>89.700958251953</ele>
        <time>2012-01-25T11:16:32Z</time>
      </trkpt>
      <trkpt lat="43.61209" lon="7.07787">
        <ele>86.09220123291</ele>
        <time>2012-01-25T11:16:35Z</time>
      </trkpt>
      <trkpt lat="43.61208" lon="7.07784">
        <ele>85.37727355957</ele>
        <time>2012-01-25T11:16:36Z</time>
      </trkpt>
      <trkpt lat="43.61201" lon="7.07779">
        <ele>83.59708404541</ele>
        <time>2012-01-25T11:16:39Z</time>
      </trkpt>
      <trkpt lat="43.61199" lon="7.07775">
        <ele>83.007118225098</ele>
        <time>2012-01-25T11:16:41Z</time>
      </trkpt>
      <trkpt lat="43.61195" lon="7.07768">
        <ele>82.033683776855</ele>
        <time>2012-01-25T11:16:45Z</time>
      </trkpt>
      <trkpt lat="43.61184" lon="7.0775">
        <ele>77.239379882812</ele>
        <time>2012-01-25T11:16:51Z</time>
      </trkpt>
      <trkpt lat="43.61174" lon="7.07724">
        <ele>70.386657714844</ele>
        <time>2012-01-25T11:16:57Z</time>
      </trkpt>
      <trkpt lat="43.61168" lon="7.0769">
        <ele>65.703201293945</ele>
        <time>2012-01-25T11:17:03Z</time>
      </trkpt>
      <trkpt lat="43.61169" lon="7.07666">
        <ele>64.979232788086</ele>
        <time>2012-01-25T11:17:07Z</time>
      </trkpt>
      <trkpt lat="43.61171" lon="7.07654">
        <ele>65.378219604492</ele>
        <time>2012-01-25T11:17:09Z</time>
      </trkpt>
      <trkpt lat="43.61179" lon="7.07629">
        <ele>67.110298156738</ele>
        <time>2012-01-25T11:17:13Z</time>
      </trkpt>
      <trkpt lat="43.61189" lon="7.07606">
        <ele>69.346557617188</ele>
        <time>2012-01-25T11:17:17Z</time>
      </trkpt>
      <trkpt lat="43.61191" lon="7.07601">
        <ele>70.029052734375</ele>
        <time>2012-01-25T11:17:18Z</time>
      </trkpt>
      <trkpt lat="43.61197" lon="7.0759">
        <ele>70.755996704102</ele>
        <time>2012-01-25T11:17:20Z</time>
      </trkpt>
      <trkpt lat="43.61205" lon="7.07573">
        <ele>70.033256530762</ele>
        <time>2012-01-25T11:17:23Z</time>
      </trkpt>
      <trkpt lat="43.61207" lon="7.07567">
        <ele>69.621269226074</ele>
        <time>2012-01-25T11:17:24Z</time>
      </trkpt>
      <trkpt lat="43.61211" lon="7.07557">
        <ele>68.967239379883</ele>
        <time>2012-01-25T11:17:26Z</time>
      </trkpt>
      <trkpt lat="43.61214" lon="7.07553">
        <ele>68.797294616699</ele>
        <time>2012-01-25T11:17:27Z</time>
      </trkpt>
      <trkpt lat="43.61216" lon="7.07548">
        <ele>68.514053344727</ele>
        <time>2012-01-25T11:17:28Z</time>
      </trkpt>
      <trkpt lat="43.61221" lon="7.07538">
        <ele>67.937271118164</ele>
        <time>2012-01-25T11:17:30Z</time>
      </trkpt>
      <trkpt lat="43.61227" lon="7.07528">
        <ele>67.527763366699</ele>
        <time>2012-01-25T11:17:32Z</time>
      </trkpt>
      <trkpt lat="43.61237" lon="7.07508">
        <ele>67.11491394043</ele>
        <time>2012-01-25T11:17:36Z</time>
      </trkpt>
      <trkpt lat="43.6124" lon="7.07496">
        <ele>66.685111999512</ele>
        <time>2012-01-25T11:17:38Z</time>
      </trkpt>
      <trkpt lat="43.61251" lon="7.07476">
        <ele>67.289390563965</ele>
        <time>2012-01-25T11:17:42Z</time>
      </trkpt>
      <trkpt lat="43.6128" lon="7.07446">
        <ele>71.136840820312</ele>
        <time>2012-01-25T11:17:49Z</time>
      </trkpt>
      <trkpt lat="43.61311" lon="7.07423">
        <ele>73.8330078125</ele>
        <time>2012-01-25T11:17:56Z</time>
      </trkpt>
      <trkpt lat="43.61315" lon="7.0742">
        <ele>74.327392578125</ele>
        <time>2012-01-25T11:17:57Z</time>
      </trkpt>
      <trkpt lat="43.61324" lon="7.07404">
        <ele>75.5908203125</ele>
        <time>2012-01-25T11:18:00Z</time>
      </trkpt>
      <trkpt lat="43.61336" lon="7.07385">
        <ele>77.610054016113</ele>
        <time>2012-01-25T11:18:04Z</time>
      </trkpt>
      <trkpt lat="43.61352" lon="7.07371">
        <ele>80.743988037109</ele>
        <time>2012-01-25T11:18:08Z</time>
      </trkpt>
      <trkpt lat="43.61355" lon="7.07366">
        <ele>81.627082824707</ele>
        <time>2012-01-25T11:18:09Z</time>
      </trkpt>
      <trkpt lat="43.61357" lon="7.07357">
        <ele>82.849838256836</ele>
        <time>2012-01-25T11:18:11Z</time>
      </trkpt>
      <trkpt lat="43.61351" lon="7.07348">
        <ele>82.823196411133</ele>
        <time>2012-01-25T11:18:14Z</time>
      </trkpt>
      <trkpt lat="43.6134" lon="7.07344">
        <ele>81.271453857422</ele>
        <time>2012-01-25T11:18:17Z</time>
      </trkpt>
      <trkpt lat="43.61335" lon="7.07343">
        <ele>80.616592407227</ele>
        <time>2012-01-25T11:18:18Z</time>
      </trkpt>
      <trkpt lat="43.61319" lon="7.07339">
        <ele>78.974067687988</ele>
        <time>2012-01-25T11:18:21Z</time>
      </trkpt>
      <trkpt lat="43.61313" lon="7.07336">
        <ele>78.616409301758</ele>
        <time>2012-01-25T11:18:22Z</time>
      </trkpt>
      <trkpt lat="43.61279" lon="7.07324">
        <ele>75.854644775391</ele>
        <time>2012-01-25T11:18:27Z</time>
      </trkpt>
      <trkpt lat="43.61243" lon="7.07312">
        <ele>68.240539550781</ele>
        <time>2012-01-25T11:18:32Z</time>
      </trkpt>
      <trkpt lat="43.61225" lon="7.07307">
        <ele>66.228332519531</ele>
        <time>2012-01-25T11:18:35Z</time>
      </trkpt>
      <trkpt lat="43.6122" lon="7.07304">
        <ele>65.911956787109</ele>
        <time>2012-01-25T11:18:36Z</time>
      </trkpt>
      <trkpt lat="43.61203" lon="7.07283">
        <ele>64.860877990723</ele>
        <time>2012-01-25T11:18:40Z</time>
      </trkpt>
      <trkpt lat="43.61198" lon="7.0727">
        <ele>64.668647766113</ele>
        <time>2012-01-25T11:18:42Z</time>
      </trkpt>
      <trkpt lat="43.61189" lon="7.07239">
        <ele>65.506530761719</ele>
        <time>2012-01-25T11:18:46Z</time>
      </trkpt>
      <trkpt lat="43.61187" lon="7.07222">
        <ele>66.494041442871</ele>
        <time>2012-01-25T11:18:48Z</time>
      </trkpt>
      <trkpt lat="43.61187" lon="7.07205">
        <ele>66.628211975098</ele>
        <time>2012-01-25T11:18:50Z</time>
      </trkpt>
      <trkpt lat="43.61184" lon="7.07183">
        <ele>67.03247833252</ele>
        <time>2012-01-25T11:18:54Z</time>
      </trkpt>
      <trkpt lat="43.61178" lon="7.07179">
        <ele>66.963813781738</ele>
        <time>2012-01-25T11:18:56Z</time>
      </trkpt>
      <trkpt lat="43.6117" lon="7.07173">
        <ele>66.876266479492</ele>
        <time>2012-01-25T11:18:59Z</time>
      </trkpt>
      <trkpt lat="43.61166" lon="7.07162">
        <ele>67.169761657715</ele>
        <time>2012-01-25T11:19:03Z</time>
      </trkpt>
      <trkpt lat="43.61166" lon="7.07144">
        <ele>67.828941345215</ele>
        <time>2012-01-25T11:19:09Z</time>
      </trkpt>
      <trkpt lat="43.61168" lon="7.07127">
        <ele>68.496627807617</ele>
        <time>2012-01-25T11:19:15Z</time>
      </trkpt>
      <trkpt lat="43.61173" lon="7.07101">
        <ele>69.600532531738</ele>
        <time>2012-01-25T11:19:24Z</time>
      </trkpt>
      <trkpt lat="43.61171" lon="7.07078">
        <ele>70.546844482422</ele>
        <time>2012-01-25T11:19:31Z</time>
      </trkpt>
      <trkpt lat="43.61168" lon="7.07054">
        <ele>72.080390930176</ele>
        <time>2012-01-25T11:19:39Z</time>
      </trkpt>
      <trkpt lat="43.61163" lon="7.07047">
        <ele>72.260055541992</ele>
        <time>2012-01-25T11:19:42Z</time>
      </trkpt>
      <trkpt lat="43.61158" lon="7.07047">
        <ele>72.226013183594</ele>
        <time>2012-01-25T11:19:44Z</time>
      </trkpt>
      <trkpt lat="43.61155" lon="7.07055">
        <ele>72.003608703613</ele>
        <time>2012-01-25T11:19:49Z</time>
      </trkpt>
      <trkpt lat="43.61155" lon="7.07065">
        <ele>71.350173950195</ele>
        <time>2012-01-25T11:19:53Z</time>
      </trkpt>
      <trkpt lat="43.61154" lon="7.0707">
        <ele>70.969085693359</ele>
        <time>2012-01-25T11:19:55Z</time>
      </trkpt>
      <trkpt lat="43.61149" lon="7.0709">
        <ele>69.772148132324</ele>
        <time>2012-01-25T11:20:02Z</time>
      </trkpt>
      <trkpt lat="43.61144" lon="7.07112">
        <ele>68.973922729492</ele>
        <time>2012-01-25T11:20:09Z</time>
      </trkpt>
      <trkpt lat="43.6114" lon="7.07138">
        <ele>68.045234680176</ele>
        <time>2012-01-25T11:20:17Z</time>
      </trkpt>
      <trkpt lat="43.61131" lon="7.07153">
        <ele>70.220764160156</ele>
        <time>2012-01-25T11:20:24Z</time>
      </trkpt>
      <trkpt lat="43.61121" lon="7.0716">
        <ele>73.16690826416</ele>
        <time>2012-01-25T11:20:29Z</time>
      </trkpt>
      <trkpt lat="43.61111" lon="7.07171">
        <ele>75.455421447754</ele>
        <time>2012-01-25T11:20:34Z</time>
      </trkpt>
      <trkpt lat="43.61105" lon="7.07188">
        <ele>75.720550537109</ele>
        <time>2012-01-25T11:20:40Z</time>
      </trkpt>
      <trkpt lat="43.61098" lon="7.07207">
        <ele>77.079231262207</ele>
        <time>2012-01-25T11:20:46Z</time>
      </trkpt>
      <trkpt lat="43.61091" lon="7.07226">
        <ele>78.970100402832</ele>
        <time>2012-01-25T11:20:53Z</time>
      </trkpt>
      <trkpt lat="43.61084" lon="7.07246">
        <ele>80.215881347656</ele>
        <time>2012-01-25T11:21:00Z</time>
      </trkpt>
      <trkpt lat="43.61077" lon="7.07263">
        <ele>81.086982727051</ele>
        <time>2012-01-25T11:21:06Z</time>
      </trkpt>
      <trkpt lat="43.61068" lon="7.07288">
        <ele>81.768035888672</ele>
        <time>2012-01-25T11:21:14Z</time>
      </trkpt>
      <trkpt lat="43.61061" lon="7.07303">
        <ele>83.194953918457</ele>
        <time>2012-01-25T11:21:20Z</time>
      </trkpt>
      <trkpt lat="43.6106" lon="7.07305">
        <ele>83.592727661133</ele>
        <time>2012-01-25T11:21:21Z</time>
      </trkpt>
      <trkpt lat="43.61054" lon="7.07311">
        <ele>84.730262756348</ele>
        <time>2012-01-25T11:21:24Z</time>
      </trkpt>
      <trkpt lat="43.61038" lon="7.07329">
        <ele>86.135055541992</ele>
        <time>2012-01-25T11:21:31Z</time>
      </trkpt>
      <trkpt lat="43.61026" lon="7.07339">
        <ele>87.871726989746</ele>
        <time>2012-01-25T11:21:36Z</time>
      </trkpt>
      <trkpt lat="43.61023" lon="7.0734">
        <ele>88.618453979492</ele>
        <time>2012-01-25T11:21:38Z</time>
      </trkpt>
      <trkpt lat="43.61022" lon="7.0734">
        <ele>88.730033874512</ele>
        <time>2012-01-25T11:21:39Z</time>
      </trkpt>
      <trkpt lat="43.61016" lon="7.07346">
        <ele>89.65357208252</ele>
        <time>2012-01-25T11:21:50Z</time>
      </trkpt>
      <trkpt lat="43.61006" lon="7.07357">
        <ele>90.86206817627</ele>
        <time>2012-01-25T11:21:53Z</time>
      </trkpt>
      <trkpt lat="43.60994" lon="7.07359">
        <ele>92.669090270996</ele>
        <time>2012-01-25T11:21:57Z</time>
      </trkpt>
      <trkpt lat="43.6098" lon="7.07363">
        <ele>93.2333984375</ele>
        <time>2012-01-25T11:22:03Z</time>
      </trkpt>
      <trkpt lat="43.60961" lon="7.07363">
        <ele>94.668487548828</ele>
        <time>2012-01-25T11:22:10Z</time>
      </trkpt>
      <trkpt lat="43.60939" lon="7.07365">
        <ele>95.545211791992</ele>
        <time>2012-01-25T11:22:17Z</time>
      </trkpt>
      <trkpt lat="43.60937" lon="7.07368">
        <ele>95.287719726562</ele>
        <time>2012-01-25T11:22:18Z</time>
      </trkpt>
      <trkpt lat="43.60926" lon="7.07369">
        <ele>95.128074645996</ele>
        <time>2012-01-25T11:22:22Z</time>
      </trkpt>
      <trkpt lat="43.60924" lon="7.07369">
        <ele>95.097175598145</ele>
        <time>2012-01-25T11:22:23Z</time>
      </trkpt>
      <trkpt lat="43.60907" lon="7.0737">
        <ele>95.299102783203</ele>
        <time>2012-01-25T11:22:29Z</time>
      </trkpt>
      <trkpt lat="43.60889" lon="7.07371">
        <ele>95.639060974121</ele>
        <time>2012-01-25T11:22:35Z</time>
      </trkpt>
      <trkpt lat="43.6087" lon="7.07372">
        <ele>96.957511901855</ele>
        <time>2012-01-25T11:22:42Z</time>
      </trkpt>
      <trkpt lat="43.60854" lon="7.07383">
        <ele>97.904273986816</ele>
        <time>2012-01-25T11:22:48Z</time>
      </trkpt>
      <trkpt lat="43.6084" lon="7.07399">
        <ele>99.208457946777</ele>
        <time>2012-01-25T11:22:54Z</time>
      </trkpt>
      <trkpt lat="43.60829" lon="7.07416">
        <ele>100</ele>
        <time>2012-01-25T11:22:59Z</time>
      </trkpt>
      <trkpt lat="43.60818" lon="7.07439">
        <ele>100</ele>
        <time>2012-01-25T11:23:06Z</time>
      </trkpt>
      <trkpt lat="43.60804" lon="7.0747">
        <ele>101.08921813965</ele>
        <time>2012-01-25T11:23:15Z</time>
      </trkpt>
      <trkpt lat="43.60789" lon="7.07485">
        <ele>103.14135742188</ele>
        <time>2012-01-25T11:23:22Z</time>
      </trkpt>
      <trkpt lat="43.60773" lon="7.075">
        <ele>104.30927276611</ele>
        <time>2012-01-25T11:23:29Z</time>
      </trkpt>
      <trkpt lat="43.60755" lon="7.07518">
        <ele>105.02338409424</ele>
        <time>2012-01-25T11:23:37Z</time>
      </trkpt>
      <trkpt lat="43.60736" lon="7.07533">
        <ele>105.22770690918</ele>
        <time>2012-01-25T11:23:45Z</time>
      </trkpt>
      <trkpt lat="43.6072" lon="7.07542">
        <ele>105.09342193603</ele>
        <time>2012-01-25T11:23:51Z</time>
      </trkpt>
      <trkpt lat="43.60708" lon="7.07544">
        <ele>105.63381958008</ele>
        <time>2012-01-25T11:23:56Z</time>
      </trkpt>
      <trkpt lat="43.60706" lon="7.07543">
        <ele>105.84703826904</ele>
        <time>2012-01-25T11:23:57Z</time>
      </trkpt>
      <trkpt lat="43.60699" lon="7.07538">
        <ele>106.38346862793</ele>
        <time>2012-01-25T11:24:02Z</time>
      </trkpt>
      <trkpt lat="43.60699" lon="7.07542">
        <ele>106.20308685303</ele>
        <time>2012-01-25T11:24:05Z</time>
      </trkpt>
      <trkpt lat="43.60701" lon="7.07539">
        <ele>106.25942993164</ele>
        <time>2012-01-25T11:24:09Z</time>
      </trkpt>
      <trkpt lat="43.60698" lon="7.0754">
        <ele>106.39877319336</ele>
        <time>2012-01-25T11:24:13Z</time>
      </trkpt>
      <trkpt lat="43.60701" lon="7.07543">
        <ele>106.10675811768</ele>
        <time>2012-01-25T11:24:17Z</time>
      </trkpt>
      <trkpt lat="43.607" lon="7.07537">
        <ele>106.39978790283</ele>
        <time>2012-01-25T11:24:20Z</time>
      </trkpt>
      <trkpt lat="43.607" lon="7.07534">
        <ele>106.53894042969</ele>
        <time>2012-01-25T11:24:21Z</time>
      </trkpt>
      <trkpt lat="43.60702" lon="7.07517">
        <ele>107.00122070312</ele>
        <time>2012-01-25T11:24:26Z</time>
      </trkpt>
      <trkpt lat="43.60709" lon="7.07484">
        <ele>108.12069702148</ele>
        <time>2012-01-25T11:24:35Z</time>
      </trkpt>
      <trkpt lat="43.60709" lon="7.07454">
        <ele>109.62297821045</ele>
        <time>2012-01-25T11:24:43Z</time>
      </trkpt>
      <trkpt lat="43.60704" lon="7.07423">
        <ele>111.08553314209</ele>
        <time>2012-01-25T11:24:51Z</time>
      </trkpt>
      <trkpt lat="43.60701" lon="7.07397">
        <ele>112.82842254639</ele>
        <time>2012-01-25T11:24:58Z</time>
      </trkpt>
      <trkpt lat="43.60692" lon="7.07352">
        <ele>115.18541717529</ele>
        <time>2012-01-25T11:25:10Z</time>
      </trkpt>
      <trkpt lat="43.60686" lon="7.07324">
        <ele>116.05841064453</ele>
        <time>2012-01-25T11:25:18Z</time>
      </trkpt>
      <trkpt lat="43.60683" lon="7.07297">
        <ele>117.11791992188</ele>
        <time>2012-01-25T11:25:25Z</time>
      </trkpt>
      <trkpt lat="43.60679" lon="7.0727">
        <ele>117.98162841797</ele>
        <time>2012-01-25T11:25:32Z</time>
      </trkpt>
      <trkpt lat="43.60673" lon="7.07245">
        <ele>119.3812789917</ele>
        <time>2012-01-25T11:25:39Z</time>
      </trkpt>
      <trkpt lat="43.60672" lon="7.07234">
        <ele>119.56568145752</ele>
        <time>2012-01-25T11:25:43Z</time>
      </trkpt>
      <trkpt lat="43.60672" lon="7.07232">
        <ele>119.51884460449</ele>
        <time>2012-01-25T11:25:44Z</time>
      </trkpt>
      <trkpt lat="43.60677" lon="7.07224">
        <ele>119.20859527588</ele>
        <time>2012-01-25T11:25:48Z</time>
      </trkpt>
      <trkpt lat="43.60678" lon="7.07222">
        <ele>119.17462158203</ele>
        <time>2012-01-25T11:25:49Z</time>
      </trkpt>
      <trkpt lat="43.6068" lon="7.07218">
        <ele>119.11608886719</ele>
        <time>2012-01-25T11:25:52Z</time>
      </trkpt>
      <trkpt lat="43.60682" lon="7.07211">
        <ele>119.09870147705</ele>
        <time>2012-01-25T11:25:56Z</time>
      </trkpt>
      <trkpt lat="43.60689" lon="7.07197">
        <ele>119.12654876709</ele>
        <time>2012-01-25T11:26:03Z</time>
      </trkpt>
      <trkpt lat="43.60692" lon="7.07185">
        <ele>119.38861846924</ele>
        <time>2012-01-25T11:26:08Z</time>
      </trkpt>
      <trkpt lat="43.60691" lon="7.07184">
        <ele>119.46392059326</ele>
        <time>2012-01-25T11:26:09Z</time>
      </trkpt>
      <trkpt lat="43.60688" lon="7.07185">
        <ele>119.50635528565</ele>
        <time>2012-01-25T11:26:13Z</time>
      </trkpt>
      <trkpt lat="43.60688" lon="7.07187">
        <ele>119.44566345215</ele>
        <time>2012-01-25T11:26:14Z</time>
      </trkpt>
      <trkpt lat="43.60685" lon="7.07197">
        <ele>119.26560974121</ele>
        <time>2012-01-25T11:26:18Z</time>
      </trkpt>
      <trkpt lat="43.60684" lon="7.07203">
        <ele>119.16970825195</ele>
        <time>2012-01-25T11:26:21Z</time>
      </trkpt>
      <trkpt lat="43.60686" lon="7.07203">
        <ele>119.07940673828</ele>
        <time>2012-01-25T11:26:23Z</time>
      </trkpt>
      <trkpt lat="43.6069" lon="7.07191">
        <ele>119.25475311279</ele>
        <time>2012-01-25T11:26:28Z</time>
      </trkpt>
      <trkpt lat="43.60688" lon="7.07175">
        <ele>119.76481628418</ele>
        <time>2012-01-25T11:26:33Z</time>
      </trkpt>
      <trkpt lat="43.60687" lon="7.07169">
        <ele>119.94866943359</ele>
        <time>2012-01-25T11:26:35Z</time>
      </trkpt>
      <trkpt lat="43.60682" lon="7.07151">
        <ele>120</ele>
        <time>2012-01-25T11:26:41Z</time>
      </trkpt>
      <trkpt lat="43.60677" lon="7.07135">
        <ele>120</ele>
        <time>2012-01-25T11:26:47Z</time>
      </trkpt>
      <trkpt lat="43.60672" lon="7.07121">
        <ele>120</ele>
        <time>2012-01-25T11:26:52Z</time>
      </trkpt>
      <trkpt lat="43.60667" lon="7.07096">
        <ele>120</ele>
        <time>2012-01-25T11:27:00Z</time>
      </trkpt>
      <trkpt lat="43.60666" lon="7.0708">
        <ele>120</ele>
        <time>2012-01-25T11:27:05Z</time>
      </trkpt>
      <trkpt lat="43.60669" lon="7.07058">
        <ele>120</ele>
        <time>2012-01-25T11:27:12Z</time>
      </trkpt>
      <trkpt lat="43.60675" lon="7.07039">
        <ele>120</ele>
        <time>2012-01-25T11:27:18Z</time>
      </trkpt>
      <trkpt lat="43.60691" lon="7.07024">
        <ele>120</ele>
        <time>2012-01-25T11:27:25Z</time>
      </trkpt>
      <trkpt lat="43.60708" lon="7.07019">
        <ele>120</ele>
        <time>2012-01-25T11:27:32Z</time>
      </trkpt>
      <trkpt lat="43.60723" lon="7.07019">
        <ele>120</ele>
        <time>2012-01-25T11:27:38Z</time>
      </trkpt>
      <trkpt lat="43.60732" lon="7.07021">
        <ele>120</ele>
        <time>2012-01-25T11:27:42Z</time>
      </trkpt>
      <trkpt lat="43.60741" lon="7.07022">
        <ele>120</ele>
        <time>2012-01-25T11:27:47Z</time>
      </trkpt>
      <trkpt lat="43.60741" lon="7.07021">
        <ele>120</ele>
        <time>2012-01-25T11:27:48Z</time>
      </trkpt>
      <trkpt lat="43.60736" lon="7.07017">
        <ele>120</ele>
        <time>2012-01-25T11:27:52Z</time>
      </trkpt>
      <trkpt lat="43.60728" lon="7.07017">
        <ele>120</ele>
        <time>2012-01-25T11:27:57Z</time>
      </trkpt>
      <trkpt lat="43.60728" lon="7.07019">
        <ele>120</ele>
        <time>2012-01-25T11:27:58Z</time>
      </trkpt>
      <trkpt lat="43.60733" lon="7.07021">
        <ele>120</ele>
        <time>2012-01-25T11:28:01Z</time>
      </trkpt>
      <trkpt lat="43.60741" lon="7.07017">
        <ele>120</ele>
        <time>2012-01-25T11:28:05Z</time>
      </trkpt>
      <trkpt lat="43.60741" lon="7.0701">
        <ele>120</ele>
        <time>2012-01-25T11:28:09Z</time>
      </trkpt>
      <trkpt lat="43.60741" lon="7.0701">
        <ele>120</ele>
        <time>2012-01-25T11:28:10Z</time>
      </trkpt>
      <trkpt lat="43.60746" lon="7.07009">
        <ele>120</ele>
        <time>2012-01-25T11:28:14Z</time>
      </trkpt>
      <trkpt lat="43.60749" lon="7.07002">
        <ele>120</ele>
        <time>2012-01-25T11:28:19Z</time>
      </trkpt>
      <trkpt lat="43.60755" lon="7.06996">
        <ele>120</ele>
        <time>2012-01-25T11:28:25Z</time>
      </trkpt>
      <trkpt lat="43.60758" lon="7.06993">
        <ele>120</ele>
        <time>2012-01-25T11:28:28Z</time>
      </trkpt>
      <trkpt lat="43.60761" lon="7.06991">
        <ele>120</ele>
        <time>2012-01-25T11:28:31Z</time>
      </trkpt>
      <trkpt lat="43.60764" lon="7.06988">
        <ele>120</ele>
        <time>2012-01-25T11:28:33Z</time>
      </trkpt>
      <trkpt lat="43.6077" lon="7.06983">
        <ele>120</ele>
        <time>2012-01-25T11:28:38Z</time>
      </trkpt>
      <trkpt lat="43.60778" lon="7.06968">
        <ele>119.17951202393</ele>
        <time>2012-01-25T11:28:47Z</time>
      </trkpt>
      <trkpt lat="43.6078" lon="7.06955">
        <ele>116.65695953369</ele>
        <time>2012-01-25T11:28:54Z</time>
      </trkpt>
      <trkpt lat="43.6078" lon="7.06942">
        <ele>114.10914611816</ele>
        <time>2012-01-25T11:29:01Z</time>
      </trkpt>
      <trkpt lat="43.60777" lon="7.06926">
        <ele>110.23753356934</ele>
        <time>2012-01-25T11:29:08Z</time>
      </trkpt>
      <trkpt lat="43.60772" lon="7.06911">
        <ele>106.91751861572</ele>
        <time>2012-01-25T11:29:13Z</time>
      </trkpt>
      <trkpt lat="43.60773" lon="7.06906">
        <ele>106.13718414307</ele>
        <time>2012-01-25T11:29:14Z</time>
      </trkpt>
      <trkpt lat="43.60777" lon="7.06894">
        <ele>104.67839813232</ele>
        <time>2012-01-25T11:29:17Z</time>
      </trkpt>
      <trkpt lat="43.6078" lon="7.06885">
        <ele>102.9485168457</ele>
        <time>2012-01-25T11:29:21Z</time>
      </trkpt>
      <trkpt lat="43.60778" lon="7.06884">
        <ele>102.86955261231</ele>
        <time>2012-01-25T11:29:29Z</time>
      </trkpt>
      <trkpt lat="43.6077" lon="7.06868">
        <ele>98.342834472656</ele>
        <time>2012-01-25T11:29:34Z</time>
      </trkpt>
      <trkpt lat="43.60749" lon="7.06854">
        <ele>94.523239135742</ele>
        <time>2012-01-25T11:29:38Z</time>
      </trkpt>
      <trkpt lat="43.60734" lon="7.06849">
        <ele>92.566665649414</ele>
        <time>2012-01-25T11:29:41Z</time>
      </trkpt>
      <trkpt lat="43.60731" lon="7.0685">
        <ele>92.641967773438</ele>
        <time>2012-01-25T11:29:42Z</time>
      </trkpt>
      <trkpt lat="43.60721" lon="7.0686">
        <ele>94.763916015625</ele>
        <time>2012-01-25T11:29:45Z</time>
      </trkpt>
      <trkpt lat="43.60718" lon="7.06863">
        <ele>95.582565307617</ele>
        <time>2012-01-25T11:29:46Z</time>
      </trkpt>
      <trkpt lat="43.60709" lon="7.06874">
        <ele>98.437103271484</ele>
        <time>2012-01-25T11:29:49Z</time>
      </trkpt>
      <trkpt lat="43.60706" lon="7.06881">
        <ele>100.10796356201</ele>
        <time>2012-01-25T11:29:51Z</time>
      </trkpt>
      <trkpt lat="43.60697" lon="7.06885">
        <ele>101.20127868652</ele>
        <time>2012-01-25T11:29:54Z</time>
      </trkpt>
      <trkpt lat="43.60687" lon="7.06884">
        <ele>100.50776672363</ele>
        <time>2012-01-25T11:29:57Z</time>
      </trkpt>
      <trkpt lat="43.60683" lon="7.06885">
        <ele>100.53483581543</ele>
        <time>2012-01-25T11:29:58Z</time>
      </trkpt>
      <trkpt lat="43.6068" lon="7.06888">
        <ele>100.78926849365</ele>
        <time>2012-01-25T11:29:59Z</time>
      </trkpt>
      <trkpt lat="43.6067" lon="7.06899">
        <ele>101.71264648438</ele>
        <time>2012-01-25T11:30:03Z</time>
      </trkpt>
      <trkpt lat="43.60667" lon="7.069">
        <ele>101.59591674805</ele>
        <time>2012-01-25T11:30:07Z</time>
      </trkpt>
      <trkpt lat="43.60655" lon="7.06901">
        <ele>101.79577636719</ele>
        <time>2012-01-25T11:30:29Z</time>
      </trkpt>
      <trkpt lat="43.60639" lon="7.069">
        <ele>101.6653137207</ele>
        <time>2012-01-25T11:30:33Z</time>
      </trkpt>
      <trkpt lat="43.60624" lon="7.06903">
        <ele>100.451171875</ele>
        <time>2012-01-25T11:30:37Z</time>
      </trkpt>
      <trkpt lat="43.60612" lon="7.06897">
        <ele>98.728012084961</ele>
        <time>2012-01-25T11:30:41Z</time>
      </trkpt>
      <trkpt lat="43.60601" lon="7.06886">
        <ele>97.771789550781</ele>
        <time>2012-01-25T11:30:46Z</time>
      </trkpt>
      <trkpt lat="43.60593" lon="7.06877">
        <ele>97.136642456055</ele>
        <time>2012-01-25T11:30:51Z</time>
      </trkpt>
      <trkpt lat="43.6058" lon="7.06858">
        <ele>95.759918212891</ele>
        <time>2012-01-25T11:30:56Z</time>
      </trkpt>
      <trkpt lat="43.60574" lon="7.06847">
        <ele>94.963409423828</ele>
        <time>2012-01-25T11:31:00Z</time>
      </trkpt>
      <trkpt lat="43.60568" lon="7.06839">
        <ele>94.441558837891</ele>
        <time>2012-01-25T11:31:04Z</time>
      </trkpt>
      <trkpt lat="43.60561" lon="7.06834">
        <ele>94.012405395508</ele>
        <time>2012-01-25T11:31:09Z</time>
      </trkpt>
      <trkpt lat="43.6055" lon="7.06826">
        <ele>94.156799316406</ele>
        <time>2012-01-25T11:31:13Z</time>
      </trkpt>
      <trkpt lat="43.60542" lon="7.06813">
        <ele>94.123847961426</ele>
        <time>2012-01-25T11:31:17Z</time>
      </trkpt>
      <trkpt lat="43.60546" lon="7.06799">
        <ele>93.624290466309</ele>
        <time>2012-01-25T11:31:22Z</time>
      </trkpt>
      <trkpt lat="43.60545" lon="7.06792">
        <ele>93.242706298828</ele>
        <time>2012-01-25T11:31:24Z</time>
      </trkpt>
      <trkpt lat="43.60544" lon="7.06786">
        <ele>92.906311035156</ele>
        <time>2012-01-25T11:31:26Z</time>
      </trkpt>
      <trkpt lat="43.60545" lon="7.06786">
        <ele>92.86247253418</ele>
        <time>2012-01-25T11:31:27Z</time>
      </trkpt>
      <trkpt lat="43.60546" lon="7.06786">
        <ele>92.840637207031</ele>
        <time>2012-01-25T11:31:29Z</time>
      </trkpt>
      <trkpt lat="43.60546" lon="7.06787">
        <ele>92.856910705566</ele>
        <time>2012-01-25T11:31:30Z</time>
      </trkpt>
      <trkpt lat="43.60548" lon="7.06788">
        <ele>92.890617370605</ele>
        <time>2012-01-25T11:31:32Z</time>
      </trkpt>
      <trkpt lat="43.6055" lon="7.06791">
        <ele>93.051315307617</ele>
        <time>2012-01-25T11:31:35Z</time>
      </trkpt>
      <trkpt lat="43.6055" lon="7.06797">
        <ele>93.425331115723</ele>
        <time>2012-01-25T11:31:41Z</time>
      </trkpt>
      <trkpt lat="43.60555" lon="7.06798">
        <ele>93.454864501953</ele>
        <time>2012-01-25T11:32:01Z</time>
      </trkpt>
      <trkpt lat="43.60553" lon="7.06814">
        <ele>94.02498626709</ele>
        <time>2012-01-25T11:32:27Z</time>
      </trkpt>
      <trkpt lat="43.60549" lon="7.06773">
        <ele>92.066505432129</ele>
        <time>2012-01-25T11:33:15Z</time>
      </trkpt>
      <trkpt lat="43.60548" lon="7.06773">
        <ele>92.092254638672</ele>
        <time>2012-01-25T11:33:21Z</time>
      </trkpt>
      <trkpt lat="43.60548" lon="7.06781">
        <ele>92.454895019531</ele>
        <time>2012-01-25T11:33:34Z</time>
      </trkpt>
      <trkpt lat="43.60547" lon="7.0678">
        <ele>92.476737976074</ele>
        <time>2012-01-25T11:33:35Z</time>
      </trkpt>
      <trkpt lat="43.60544" lon="7.06783">
        <ele>92.711318969727</ele>
        <time>2012-01-25T11:33:40Z</time>
      </trkpt>
      <trkpt lat="43.60543" lon="7.06782">
        <ele>92.684310913086</ele>
        <time>2012-01-25T11:33:42Z</time>
      </trkpt>
      <trkpt lat="43.60544" lon="7.0678">
        <ele>92.537994384766</ele>
        <time>2012-01-25T11:33:44Z</time>
      </trkpt>
      <trkpt lat="43.60546" lon="7.0679">
        <ele>93.099960327148</ele>
        <time>2012-01-25T11:33:49Z</time>
      </trkpt>
      <trkpt lat="43.60546" lon="7.06794">
        <ele>93.302284240723</ele>
        <time>2012-01-25T11:33:51Z</time>
      </trkpt>
      <trkpt lat="43.60545" lon="7.06802">
        <ele>93.779998779297</ele>
        <time>2012-01-25T11:33:55Z</time>
      </trkpt>
      <trkpt lat="43.60541" lon="7.0681">
        <ele>94.08967590332</ele>
        <time>2012-01-25T11:34:10Z</time>
      </trkpt>
      <trkpt lat="43.60541" lon="7.06813">
        <ele>94.138984680176</ele>
        <time>2012-01-25T11:34:13Z</time>
      </trkpt>
      <trkpt lat="43.6054" lon="7.06811">
        <ele>94.103507995605</ele>
        <time>2012-01-25T11:34:18Z</time>
      </trkpt>
      <trkpt lat="43.60548" lon="7.06815">
        <ele>94.094146728516</ele>
        <time>2012-01-25T11:34:28Z</time>
      </trkpt>
      <trkpt lat="43.60549" lon="7.06814">
        <ele>94.071952819824</ele>
        <time>2012-01-25T11:34:32Z</time>
      </trkpt>
      <trkpt lat="43.60553" lon="7.06815">
        <ele>94.03076171875</ele>
        <time>2012-01-25T11:34:37Z</time>
      </trkpt>
      <trkpt lat="43.60555" lon="7.06819">
        <ele>94.005043029785</ele>
        <time>2012-01-25T11:34:43Z</time>
      </trkpt>
      <trkpt lat="43.60558" lon="7.06823">
        <ele>93.973991394043</ele>
        <time>2012-01-25T11:34:51Z</time>
      </trkpt>
      <trkpt lat="43.60562" lon="7.06821">
        <ele>93.903732299805</ele>
        <time>2012-01-25T11:35:18Z</time>
      </trkpt>
      <trkpt lat="43.60558" lon="7.06824">
        <ele>93.96509552002</ele>
        <time>2012-01-25T11:35:40Z</time>
      </trkpt>
      <trkpt lat="43.60551" lon="7.06819">
        <ele>94.077087402344</ele>
        <time>2012-01-25T11:35:43Z</time>
      </trkpt>
      <trkpt lat="43.60549" lon="7.06817">
        <ele>94.103454589844</ele>
        <time>2012-01-25T11:35:44Z</time>
      </trkpt>
      <trkpt lat="43.60538" lon="7.0681">
        <ele>94.094062805176</ele>
        <time>2012-01-25T11:35:48Z</time>
      </trkpt>
      <trkpt lat="43.60537" lon="7.06808">
        <ele>94.059844970703</ele>
        <time>2012-01-25T11:35:49Z</time>
      </trkpt>
      <trkpt lat="43.60537" lon="7.06805">
        <ele>93.99112701416</ele>
        <time>2012-01-25T11:35:50Z</time>
      </trkpt>
      <trkpt lat="43.6054" lon="7.06801">
        <ele>93.767738342285</ele>
        <time>2012-01-25T11:35:53Z</time>
      </trkpt>
      <trkpt lat="43.60544" lon="7.06796">
        <ele>93.454071044922</ele>
        <time>2012-01-25T11:35:56Z</time>
      </trkpt>
      <trkpt lat="43.60543" lon="7.06794">
        <ele>93.33194732666</ele>
        <time>2012-01-25T11:35:57Z</time>
      </trkpt>
      <trkpt lat="43.60543" lon="7.06784">
        <ele>92.787170410156</ele>
        <time>2012-01-25T11:36:01Z</time>
      </trkpt>
      <trkpt lat="43.60543" lon="7.06784">
        <ele>92.794960021973</ele>
        <time>2012-01-25T11:36:02Z</time>
      </trkpt>
      <trkpt lat="43.60545" lon="7.06788">
        <ele>92.989219665527</ele>
        <time>2012-01-25T11:36:07Z</time>
      </trkpt>
      <trkpt lat="43.60542" lon="7.06799">
        <ele>93.64811706543</ele>
        <time>2012-01-25T11:36:14Z</time>
      </trkpt>
      <trkpt lat="43.60551" lon="7.06787">
        <ele>92.750610351562</ele>
        <time>2012-01-25T11:36:44Z</time>
      </trkpt>
      <trkpt lat="43.60551" lon="7.06788">
        <ele>92.852630615234</ele>
        <time>2012-01-25T11:36:48Z</time>
      </trkpt>
      <trkpt lat="43.60548" lon="7.06791">
        <ele>93.100151062012</ele>
        <time>2012-01-25T11:37:11Z</time>
      </trkpt>
      <trkpt lat="43.60552" lon="7.06791">
        <ele>93.013900756836</ele>
        <time>2012-01-25T11:37:18Z</time>
      </trkpt>
      <trkpt lat="43.60565" lon="7.06786">
        <ele>92.225631713867</ele>
        <time>2012-01-25T11:37:23Z</time>
      </trkpt>
      <trkpt lat="43.60582" lon="7.06782">
        <ele>91.37419128418</ele>
        <time>2012-01-25T11:37:28Z</time>
      </trkpt>
      <trkpt lat="43.60594" lon="7.06785">
        <ele>91.278961181641</ele>
        <time>2012-01-25T11:37:32Z</time>
      </trkpt>
      <trkpt lat="43.60596" lon="7.06785">
        <ele>91.137191772461</ele>
        <time>2012-01-25T11:37:33Z</time>
      </trkpt>
      <trkpt lat="43.60616" lon="7.06784">
        <ele>90.626724243164</ele>
        <time>2012-01-25T11:37:38Z</time>
      </trkpt>
      <trkpt lat="43.60635" lon="7.06781">
        <ele>90.31258392334</ele>
        <time>2012-01-25T11:37:43Z</time>
      </trkpt>
      <trkpt lat="43.6066" lon="7.0678">
        <ele>90.213577270508</ele>
        <time>2012-01-25T11:37:49Z</time>
      </trkpt>
      <trkpt lat="43.60686" lon="7.0677">
        <ele>84.222885131836</ele>
        <time>2012-01-25T11:37:55Z</time>
      </trkpt>
      <trkpt lat="43.60693" lon="7.06764">
        <ele>81.793876647949</ele>
        <time>2012-01-25T11:37:57Z</time>
      </trkpt>
      <trkpt lat="43.60704" lon="7.06752">
        <ele>80.108673095703</ele>
        <time>2012-01-25T11:38:00Z</time>
      </trkpt>
      <trkpt lat="43.60713" lon="7.06736">
        <ele>80</ele>
        <time>2012-01-25T11:38:03Z</time>
      </trkpt>
      <trkpt lat="43.6072" lon="7.06723">
        <ele>80</ele>
        <time>2012-01-25T11:38:06Z</time>
      </trkpt>
      <trkpt lat="43.60725" lon="7.06709">
        <ele>80</ele>
        <time>2012-01-25T11:38:09Z</time>
      </trkpt>
      <trkpt lat="43.60727" lon="7.06704">
        <ele>80</ele>
        <time>2012-01-25T11:38:11Z</time>
      </trkpt>
      <trkpt lat="43.60728" lon="7.06702">
        <ele>80</ele>
        <time>2012-01-25T11:38:12Z</time>
      </trkpt>
      <trkpt lat="43.60736" lon="7.06696">
        <ele>80</ele>
        <time>2012-01-25T11:38:15Z</time>
      </trkpt>
      <trkpt lat="43.60751" lon="7.06692">
        <ele>80</ele>
        <time>2012-01-25T11:38:20Z</time>
      </trkpt>
      <trkpt lat="43.60753" lon="7.06694">
        <ele>80</ele>
        <time>2012-01-25T11:38:21Z</time>
      </trkpt>
      <trkpt lat="43.60756" lon="7.06701">
        <ele>80</ele>
        <time>2012-01-25T11:38:24Z</time>
      </trkpt>
      <trkpt lat="43.6076" lon="7.0672">
        <ele>80</ele>
        <time>2012-01-25T11:38:31Z</time>
      </trkpt>
      <trkpt lat="43.60769" lon="7.06731">
        <ele>80</ele>
        <time>2012-01-25T11:38:37Z</time>
      </trkpt>
      <trkpt lat="43.60779" lon="7.06736">
        <ele>80</ele>
        <time>2012-01-25T11:38:43Z</time>
      </trkpt>
      <trkpt lat="43.60788" lon="7.06741">
        <ele>80</ele>
        <time>2012-01-25T11:38:49Z</time>
      </trkpt>
      <trkpt lat="43.60798" lon="7.0675">
        <ele>80</ele>
        <time>2012-01-25T11:38:56Z</time>
      </trkpt>
      <trkpt lat="43.60806" lon="7.06755">
        <ele>80</ele>
        <time>2012-01-25T11:39:02Z</time>
      </trkpt>
      <trkpt lat="43.60807" lon="7.06756">
        <ele>80</ele>
        <time>2012-01-25T11:39:04Z</time>
      </trkpt>
      <trkpt lat="43.60814" lon="7.06761">
        <ele>80</ele>
        <time>2012-01-25T11:39:09Z</time>
      </trkpt>
      <trkpt lat="43.60819" lon="7.06766">
        <ele>80</ele>
        <time>2012-01-25T11:39:15Z</time>
      </trkpt>
      <trkpt lat="43.60821" lon="7.06767">
        <ele>80</ele>
        <time>2012-01-25T11:39:17Z</time>
      </trkpt>
      <trkpt lat="43.60824" lon="7.06769">
        <ele>80</ele>
        <time>2012-01-25T11:39:21Z</time>
      </trkpt>
      <trkpt lat="43.60827" lon="7.0677">
        <ele>80</ele>
        <time>2012-01-25T11:39:24Z</time>
      </trkpt>
      <trkpt lat="43.60832" lon="7.06772">
        <ele>80</ele>
        <time>2012-01-25T11:39:30Z</time>
      </trkpt>
      <trkpt lat="43.60832" lon="7.06773">
        <ele>80</ele>
        <time>2012-01-25T11:39:32Z</time>
      </trkpt>
      <trkpt lat="43.60844" lon="7.0679">
        <ele>80</ele>
        <time>2012-01-25T11:40:35Z</time>
      </trkpt>
      <trkpt lat="43.6086" lon="7.06794">
        <ele>80</ele>
        <time>2012-01-25T11:40:40Z</time>
      </trkpt>
      <trkpt lat="43.60878" lon="7.06802">
        <ele>80</ele>
        <time>2012-01-25T11:40:46Z</time>
      </trkpt>
      <trkpt lat="43.60887" lon="7.06814">
        <ele>80</ele>
        <time>2012-01-25T11:40:51Z</time>
      </trkpt>
      <trkpt lat="43.60887" lon="7.06826">
        <ele>80</ele>
        <time>2012-01-25T11:40:56Z</time>
      </trkpt>
      <trkpt lat="43.60886" lon="7.06828">
        <ele>80</ele>
        <time>2012-01-25T11:40:59Z</time>
      </trkpt>
      <trkpt lat="43.60884" lon="7.06829">
        <ele>80</ele>
        <time>2012-01-25T11:41:00Z</time>
      </trkpt>
      <trkpt lat="43.60881" lon="7.06837">
        <ele>80.531440734863</ele>
        <time>2012-01-25T11:41:04Z</time>
      </trkpt>
      <trkpt lat="43.6088" lon="7.0684">
        <ele>80.940910339355</ele>
        <time>2012-01-25T11:41:05Z</time>
      </trkpt>
      <trkpt lat="43.60878" lon="7.06846">
        <ele>81.976226806641</ele>
        <time>2012-01-25T11:41:08Z</time>
      </trkpt>
      <trkpt lat="43.6088" lon="7.06851">
        <ele>82.486656188965</ele>
        <time>2012-01-25T11:41:10Z</time>
      </trkpt>
      <trkpt lat="43.60887" lon="7.06856">
        <ele>82.581123352051</ele>
        <time>2012-01-25T11:41:14Z</time>
      </trkpt>
      <trkpt lat="43.60891" lon="7.06859">
        <ele>82.562126159668</ele>
        <time>2012-01-25T11:41:17Z</time>
      </trkpt>
      <trkpt lat="43.60894" lon="7.06872">
        <ele>86.66089630127</ele>
        <time>2012-01-25T11:41:23Z</time>
      </trkpt>
      <trkpt lat="43.60892" lon="7.06875">
        <ele>87.79027557373</ele>
        <time>2012-01-25T11:41:24Z</time>
      </trkpt>
      <trkpt lat="43.60889" lon="7.06886">
        <ele>92.110549926758</ele>
        <time>2012-01-25T11:41:29Z</time>
      </trkpt>
      <trkpt lat="43.60883" lon="7.06893">
        <ele>94.767127990723</ele>
        <time>2012-01-25T11:41:35Z</time>
      </trkpt>
      <trkpt lat="43.60882" lon="7.06898">
        <ele>95.865379333496</ele>
        <time>2012-01-25T11:41:41Z</time>
      </trkpt>
      <trkpt lat="43.60881" lon="7.069">
        <ele>96.460227966309</ele>
        <time>2012-01-25T11:41:51Z</time>
      </trkpt>
      <trkpt lat="43.60879" lon="7.06907">
        <ele>98.21199798584</ele>
        <time>2012-01-25T11:41:58Z</time>
      </trkpt>
      <trkpt lat="43.60875" lon="7.06912">
        <ele>99.495758056641</ele>
        <time>2012-01-25T11:42:05Z</time>
      </trkpt>
      <trkpt lat="43.60873" lon="7.06917">
        <ele>100.54055786133</ele>
        <time>2012-01-25T11:42:12Z</time>
      </trkpt>
      <trkpt lat="43.60872" lon="7.06927">
        <ele>102.61575317383</ele>
        <time>2012-01-25T11:42:19Z</time>
      </trkpt>
      <trkpt lat="43.60873" lon="7.06938">
        <ele>104.72573852539</ele>
        <time>2012-01-25T11:42:27Z</time>
      </trkpt>
      <trkpt lat="43.60874" lon="7.06941">
        <ele>105.29467010498</ele>
        <time>2012-01-25T11:42:29Z</time>
      </trkpt>
      <trkpt lat="43.60876" lon="7.06947">
        <ele>106.05741882324</ele>
        <time>2012-01-25T11:42:33Z</time>
      </trkpt>
      <trkpt lat="43.6088" lon="7.06958">
        <ele>106.68569946289</ele>
        <time>2012-01-25T11:42:41Z</time>
      </trkpt>
      <trkpt lat="43.60879" lon="7.06961">
        <ele>106.89512634277</ele>
        <time>2012-01-25T11:42:44Z</time>
      </trkpt>
      <trkpt lat="43.60882" lon="7.06969">
        <ele>107.26591491699</ele>
        <time>2012-01-25T11:42:49Z</time>
      </trkpt>
      <trkpt lat="43.60889" lon="7.06979">
        <ele>108.32144927978</ele>
        <time>2012-01-25T11:42:56Z</time>
      </trkpt>
      <trkpt lat="43.60894" lon="7.06988">
        <ele>109.52940368652</ele>
        <time>2012-01-25T11:43:03Z</time>
      </trkpt>
      <trkpt lat="43.60898" lon="7.0699">
        <ele>109.62470245361</ele>
        <time>2012-01-25T11:43:07Z</time>
      </trkpt>
      <trkpt lat="43.609" lon="7.06991">
        <ele>109.71186828613</ele>
        <time>2012-01-25T11:43:10Z</time>
      </trkpt>
      <trkpt lat="43.60907" lon="7.06995">
        <ele>109.89373779297</ele>
        <time>2012-01-25T11:43:16Z</time>
      </trkpt>
      <trkpt lat="43.60907" lon="7.06998">
        <ele>110.31177520752</ele>
        <time>2012-01-25T11:43:27Z</time>
      </trkpt>
      <trkpt lat="43.60913" lon="7.06995">
        <ele>109.48071289062</ele>
        <time>2012-01-25T11:44:03Z</time>
      </trkpt>
      <trkpt lat="43.60925" lon="7.06994">
        <ele>109.88996887207</ele>
        <time>2012-01-25T11:44:08Z</time>
      </trkpt>
      <trkpt lat="43.60942" lon="7.06991">
        <ele>111.23723602295</ele>
        <time>2012-01-25T11:44:14Z</time>
      </trkpt>
      <trkpt lat="43.60947" lon="7.0699">
        <ele>111.05582427978</ele>
        <time>2012-01-25T11:44:16Z</time>
      </trkpt>
      <trkpt lat="43.60955" lon="7.06988">
        <ele>110.54942321777</ele>
        <time>2012-01-25T11:44:19Z</time>
      </trkpt>
      <trkpt lat="43.60963" lon="7.06993">
        <ele>110.98544311523</ele>
        <time>2012-01-25T11:44:23Z</time>
      </trkpt>
      <trkpt lat="43.60966" lon="7.06988">
        <ele>110.03787231445</ele>
        <time>2012-01-25T11:44:27Z</time>
      </trkpt>
      <trkpt lat="43.60971" lon="7.06984">
        <ele>109.07828521728</ele>
        <time>2012-01-25T11:44:33Z</time>
      </trkpt>
      <trkpt lat="43.60973" lon="7.0697">
        <ele>106.60198974609</ele>
        <time>2012-01-25T11:44:37Z</time>
      </trkpt>
      <trkpt lat="43.60975" lon="7.06945">
        <ele>102.80484008789</ele>
        <time>2012-01-25T11:44:42Z</time>
      </trkpt>
      <trkpt lat="43.60974" lon="7.06926">
        <ele>97.241516113281</ele>
        <time>2012-01-25T11:44:46Z</time>
      </trkpt>
      <trkpt lat="43.6097" lon="7.06907">
        <ele>91.842727661133</ele>
        <time>2012-01-25T11:44:50Z</time>
      </trkpt>
      <trkpt lat="43.60973" lon="7.06888">
        <ele>84.621719360352</ele>
        <time>2012-01-25T11:44:54Z</time>
      </trkpt>
      <trkpt lat="43.60985" lon="7.06872">
        <ele>80.423049926758</ele>
        <time>2012-01-25T11:44:58Z</time>
      </trkpt>
      <trkpt lat="43.60991" lon="7.06874">
        <ele>80.16423034668</ele>
        <time>2012-01-25T11:45:00Z</time>
      </trkpt>
      <trkpt lat="43.60993" lon="7.06875">
        <ele>80.088806152344</ele>
        <time>2012-01-25T11:45:01Z</time>
      </trkpt>
      <trkpt lat="43.60999" lon="7.06877">
        <ele>79.687355041504</ele>
        <time>2012-01-25T11:45:06Z</time>
      </trkpt>
      <trkpt lat="43.60999" lon="7.06878">
        <ele>79.680725097656</ele>
        <time>2012-01-25T11:45:07Z</time>
      </trkpt>
      <trkpt lat="43.61007" lon="7.06874">
        <ele>79.246917724609</ele>
        <time>2012-01-25T11:45:41Z</time>
      </trkpt>
      <trkpt lat="43.61021" lon="7.0687">
        <ele>78.840919494629</ele>
        <time>2012-01-25T11:45:46Z</time>
      </trkpt>
      <trkpt lat="43.6104" lon="7.06873">
        <ele>78.569007873535</ele>
        <time>2012-01-25T11:45:51Z</time>
      </trkpt>
      <trkpt lat="43.61053" lon="7.0687">
        <ele>78.690887451172</ele>
        <time>2012-01-25T11:45:55Z</time>
      </trkpt>
      <trkpt lat="43.61063" lon="7.06872">
        <ele>78.615356445312</ele>
        <time>2012-01-25T11:45:58Z</time>
      </trkpt>
      <trkpt lat="43.61068" lon="7.06874">
        <ele>78.524375915527</ele>
        <time>2012-01-25T11:46:00Z</time>
      </trkpt>
      <trkpt lat="43.61076" lon="7.06873">
        <ele>78.572441101074</ele>
        <time>2012-01-25T11:46:02Z</time>
      </trkpt>
      <trkpt lat="43.61088" lon="7.06881">
        <ele>78.290916442871</ele>
        <time>2012-01-25T11:46:05Z</time>
      </trkpt>
      <trkpt lat="43.61108" lon="7.06899">
        <ele>77.6943359375</ele>
        <time>2012-01-25T11:46:10Z</time>
      </trkpt>
      <trkpt lat="43.6112" lon="7.06913">
        <ele>77.135635375977</ele>
        <time>2012-01-25T11:46:14Z</time>
      </trkpt>
      <trkpt lat="43.61125" lon="7.06925">
        <ele>76.840873718262</ele>
        <time>2012-01-25T11:46:17Z</time>
      </trkpt>
      <trkpt lat="43.61134" lon="7.06934">
        <ele>76.483276367188</ele>
        <time>2012-01-25T11:46:20Z</time>
      </trkpt>
      <trkpt lat="43.61141" lon="7.06954">
        <ele>75.671363830566</ele>
        <time>2012-01-25T11:46:24Z</time>
      </trkpt>
      <trkpt lat="43.61151" lon="7.06974">
        <ele>74.92463684082</ele>
        <time>2012-01-25T11:46:28Z</time>
      </trkpt>
      <trkpt lat="43.61153" lon="7.0698">
        <ele>74.716926574707</ele>
        <time>2012-01-25T11:46:29Z</time>
      </trkpt>
      <trkpt lat="43.61155" lon="7.06994">
        <ele>74.208808898926</ele>
        <time>2012-01-25T11:46:31Z</time>
      </trkpt>
      <trkpt lat="43.61159" lon="7.07007">
        <ele>73.657325744629</ele>
        <time>2012-01-25T11:46:33Z</time>
      </trkpt>
      <trkpt lat="43.61161" lon="7.07028">
        <ele>72.801727294922</ele>
        <time>2012-01-25T11:46:36Z</time>
      </trkpt>
      <trkpt lat="43.61163" lon="7.07034">
        <ele>72.674621582031</ele>
        <time>2012-01-25T11:46:37Z</time>
      </trkpt>
      <trkpt lat="43.61166" lon="7.07038">
        <ele>72.611175537109</ele>
        <time>2012-01-25T11:46:39Z</time>
      </trkpt>
      <trkpt lat="43.61169" lon="7.07036">
        <ele>72.742935180664</ele>
        <time>2012-01-25T11:46:42Z</time>
      </trkpt>
      <trkpt lat="43.61172" lon="7.07028">
        <ele>72.984809875488</ele>
        <time>2012-01-25T11:47:20Z</time>
      </trkpt>
      <trkpt lat="43.61173" lon="7.07007">
        <ele>73.738456726074</ele>
        <time>2012-01-25T11:47:26Z</time>
      </trkpt>
      <trkpt lat="43.6117" lon="7.06983">
        <ele>74.699684143066</ele>
        <time>2012-01-25T11:47:32Z</time>
      </trkpt>
      <trkpt lat="43.61169" lon="7.06962">
        <ele>75.40837097168</ele>
        <time>2012-01-25T11:47:38Z</time>
      </trkpt>
      <trkpt lat="43.61161" lon="7.06935">
        <ele>76.332260131836</ele>
        <time>2012-01-25T11:47:45Z</time>
      </trkpt>
      <trkpt lat="43.61148" lon="7.0691">
        <ele>77.248931884766</ele>
        <time>2012-01-25T11:47:52Z</time>
      </trkpt>
      <trkpt lat="43.6113" lon="7.06891">
        <ele>77.918411254883</ele>
        <time>2012-01-25T11:47:59Z</time>
      </trkpt>
      <trkpt lat="43.61116" lon="7.0688">
        <ele>78.335548400879</ele>
        <time>2012-01-25T11:48:04Z</time>
      </trkpt>
      <trkpt lat="43.61093" lon="7.06859">
        <ele>79.06510925293</ele>
        <time>2012-01-25T11:48:13Z</time>
      </trkpt>
      <trkpt lat="43.61072" lon="7.06845">
        <ele>79.593826293945</ele>
        <time>2012-01-25T11:48:20Z</time>
      </trkpt>
      <trkpt lat="43.61045" lon="7.06822">
        <ele>80</ele>
        <time>2012-01-25T11:48:29Z</time>
      </trkpt>
      <trkpt lat="43.61019" lon="7.06802">
        <ele>80</ele>
        <time>2012-01-25T11:48:37Z</time>
      </trkpt>
      <trkpt lat="43.60982" lon="7.06771">
        <ele>80</ele>
        <time>2012-01-25T11:48:48Z</time>
      </trkpt>
      <trkpt lat="43.60965" lon="7.06761">
        <ele>80</ele>
        <time>2012-01-25T11:48:53Z</time>
      </trkpt>
      <trkpt lat="43.60946" lon="7.06752">
        <ele>80</ele>
        <time>2012-01-25T11:49:00Z</time>
      </trkpt>
      <trkpt lat="43.60931" lon="7.06736">
        <ele>80</ele>
        <time>2012-01-25T11:49:05Z</time>
      </trkpt>
      <trkpt lat="43.60929" lon="7.06724">
        <ele>80</ele>
        <time>2012-01-25T11:49:08Z</time>
      </trkpt>
      <trkpt lat="43.60928" lon="7.06721">
        <ele>80</ele>
        <time>2012-01-25T11:49:09Z</time>
      </trkpt>
      <trkpt lat="43.60927" lon="7.06717">
        <ele>80</ele>
        <time>2012-01-25T11:49:13Z</time>
      </trkpt>
      <trkpt lat="43.60928" lon="7.06716">
        <ele>80</ele>
        <time>2012-01-25T11:49:17Z</time>
      </trkpt>
      <trkpt lat="43.60928" lon="7.06708">
        <ele>80</ele>
        <time>2012-01-25T11:49:20Z</time>
      </trkpt>
      <trkpt lat="43.60926" lon="7.067">
        <ele>80</ele>
        <time>2012-01-25T11:49:22Z</time>
      </trkpt>
      <trkpt lat="43.60929" lon="7.06683">
        <ele>80.548362731934</ele>
        <time>2012-01-25T11:49:27Z</time>
      </trkpt>
      <trkpt lat="43.60939" lon="7.06678">
        <ele>81.448936462402</ele>
        <time>2012-01-25T11:49:32Z</time>
      </trkpt>
      <trkpt lat="43.60954" lon="7.06678">
        <ele>82.875511169434</ele>
        <time>2012-01-25T11:49:38Z</time>
      </trkpt>
      <trkpt lat="43.60968" lon="7.06679">
        <ele>84.468231201172</ele>
        <time>2012-01-25T11:49:45Z</time>
      </trkpt>
      <trkpt lat="43.60987" lon="7.06686">
        <ele>83.174240112305</ele>
        <time>2012-01-25T11:49:55Z</time>
      </trkpt>
      <trkpt lat="43.61002" lon="7.06693">
        <ele>81.448623657227</ele>
        <time>2012-01-25T11:50:03Z</time>
      </trkpt>
      <trkpt lat="43.61017" lon="7.06698">
        <ele>85.453102111816</ele>
        <time>2012-01-25T11:50:11Z</time>
      </trkpt>
      <trkpt lat="43.61018" lon="7.06698">
        <ele>85.838066101074</ele>
        <time>2012-01-25T11:50:12Z</time>
      </trkpt>
      <trkpt lat="43.61023" lon="7.06693">
        <ele>88.628974914551</ele>
        <time>2012-01-25T11:50:15Z</time>
      </trkpt>
      <trkpt lat="43.61025" lon="7.06682">
        <ele>93.729713439941</ele>
        <time>2012-01-25T11:50:20Z</time>
      </trkpt>
      <trkpt lat="43.61023" lon="7.06677">
        <ele>94.700119018555</ele>
        <time>2012-01-25T11:50:22Z</time>
      </trkpt>
      <trkpt lat="43.61018" lon="7.06672">
        <ele>95.290885925293</ele>
        <time>2012-01-25T11:50:26Z</time>
      </trkpt>
      <trkpt lat="43.61011" lon="7.06666">
        <ele>95.206001281738</ele>
        <time>2012-01-25T11:50:33Z</time>
      </trkpt>
      <trkpt lat="43.61002" lon="7.06658">
        <ele>94.873527526855</ele>
        <time>2012-01-25T11:50:41Z</time>
      </trkpt>
      <trkpt lat="43.60999" lon="7.06656">
        <ele>95.064628601074</ele>
        <time>2012-01-25T11:50:46Z</time>
      </trkpt>
      <trkpt lat="43.60999" lon="7.06655">
        <ele>95.107772827148</ele>
        <time>2012-01-25T11:50:47Z</time>
      </trkpt>
      <trkpt lat="43.60997" lon="7.06653">
        <ele>95.622421264648</ele>
        <time>2012-01-25T11:50:53Z</time>
      </trkpt>
      <trkpt lat="43.60997" lon="7.06651">
        <ele>95.92830657959</ele>
        <time>2012-01-25T11:50:59Z</time>
      </trkpt>
      <trkpt lat="43.60998" lon="7.06637">
        <ele>100.02532196045</ele>
        <time>2012-01-25T11:51:42Z</time>
      </trkpt>
      <trkpt lat="43.60996" lon="7.06635">
        <ele>99.999168395996</ele>
        <time>2012-01-25T11:51:44Z</time>
      </trkpt>
      <trkpt lat="43.60991" lon="7.06629">
        <ele>100.34852600098</ele>
        <time>2012-01-25T11:51:49Z</time>
      </trkpt>
      <trkpt lat="43.6099" lon="7.06627">
        <ele>100.526512146</ele>
        <time>2012-01-25T11:51:50Z</time>
      </trkpt>
      <trkpt lat="43.60984" lon="7.06618">
        <ele>101.68912506103</ele>
        <time>2012-01-25T11:51:56Z</time>
      </trkpt>
      <trkpt lat="43.60981" lon="7.06612">
        <ele>102.86864471435</ele>
        <time>2012-01-25T11:52:01Z</time>
      </trkpt>
      <trkpt lat="43.60972" lon="7.06602">
        <ele>103.89472961426</ele>
        <time>2012-01-25T11:52:09Z</time>
      </trkpt>
      <trkpt lat="43.60964" lon="7.06596">
        <ele>103.34777832031</ele>
        <time>2012-01-25T11:52:14Z</time>
      </trkpt>
      <trkpt lat="43.60962" lon="7.06596">
        <ele>102.82499694824</ele>
        <time>2012-01-25T11:52:15Z</time>
      </trkpt>
      <trkpt lat="43.60947" lon="7.06595">
        <ele>99.708625793457</ele>
        <time>2012-01-25T11:52:19Z</time>
      </trkpt>
      <trkpt lat="43.60925" lon="7.06585">
        <ele>98.760200500488</ele>
        <time>2012-01-25T11:52:24Z</time>
      </trkpt>
      <trkpt lat="43.60909" lon="7.06577">
        <ele>98.944183349609</ele>
        <time>2012-01-25T11:52:28Z</time>
      </trkpt>
      <trkpt lat="43.609" lon="7.06569">
        <ele>100.04281616211</ele>
        <time>2012-01-25T11:52:31Z</time>
      </trkpt>
      <trkpt lat="43.60879" lon="7.06544">
        <ele>101.69121551514</ele>
        <time>2012-01-25T11:52:39Z</time>
      </trkpt>
      <trkpt lat="43.60871" lon="7.06528">
        <ele>102.72608947754</ele>
        <time>2012-01-25T11:52:43Z</time>
      </trkpt>
      <trkpt lat="43.60859" lon="7.06497">
        <ele>102.86519622803</ele>
        <time>2012-01-25T11:52:51Z</time>
      </trkpt>
      <trkpt lat="43.60857" lon="7.06477">
        <ele>103.96617126465</ele>
        <time>2012-01-25T11:52:55Z</time>
      </trkpt>
      <trkpt lat="43.60846" lon="7.06465">
        <ele>103.33941650391</ele>
        <time>2012-01-25T11:52:59Z</time>
      </trkpt>
      <trkpt lat="43.60828" lon="7.06442">
        <ele>102.08811950684</ele>
        <time>2012-01-25T11:53:06Z</time>
      </trkpt>
      <trkpt lat="43.60822" lon="7.06425">
        <ele>101.94392395019</ele>
        <time>2012-01-25T11:53:11Z</time>
      </trkpt>
      <trkpt lat="43.60822" lon="7.06422">
        <ele>102.23231506348</ele>
        <time>2012-01-25T11:53:12Z</time>
      </trkpt>
      <trkpt lat="43.60826" lon="7.06418">
        <ele>103.39617919922</ele>
        <time>2012-01-25T11:53:15Z</time>
      </trkpt>
      <trkpt lat="43.6083" lon="7.0642">
        <ele>103.91116333008</ele>
        <time>2012-01-25T11:53:18Z</time>
      </trkpt>
      <trkpt lat="43.60833" lon="7.06423">
        <ele>104.4055480957</ele>
        <time>2012-01-25T11:53:21Z</time>
      </trkpt>
      <trkpt lat="43.60837" lon="7.06429">
        <ele>104.61336517334</ele>
        <time>2012-01-25T11:53:28Z</time>
      </trkpt>
      <trkpt lat="43.60844" lon="7.06436">
        <ele>105.00403594971</ele>
        <time>2012-01-25T11:53:36Z</time>
      </trkpt>
      <trkpt lat="43.60849" lon="7.06441">
        <ele>105.50317382812</ele>
        <time>2012-01-25T11:53:42Z</time>
      </trkpt>
      <trkpt lat="43.60851" lon="7.06441">
        <ele>105.62446594238</ele>
        <time>2012-01-25T11:53:43Z</time>
      </trkpt>
      <trkpt lat="43.60858" lon="7.06446">
        <ele>106.47052001953</ele>
        <time>2012-01-25T11:53:50Z</time>
      </trkpt>
      <trkpt lat="43.60868" lon="7.06453">
        <ele>108.34967803955</ele>
        <time>2012-01-25T11:53:58Z</time>
      </trkpt>
      <trkpt lat="43.60875" lon="7.0646">
        <ele>109.74552154541</ele>
        <time>2012-01-25T11:54:04Z</time>
      </trkpt>
      <trkpt lat="43.60881" lon="7.06469">
        <ele>110.37259674072</ele>
        <time>2012-01-25T11:54:11Z</time>
      </trkpt>
      <trkpt lat="43.60882" lon="7.0648">
        <ele>109.21649932861</ele>
        <time>2012-01-25T11:54:16Z</time>
      </trkpt>
      <trkpt lat="43.60888" lon="7.06491">
        <ele>109.04370117188</ele>
        <time>2012-01-25T11:54:22Z</time>
      </trkpt>
      <trkpt lat="43.60897" lon="7.06498">
        <ele>108.80276489258</ele>
        <time>2012-01-25T11:54:28Z</time>
      </trkpt>
      <trkpt lat="43.60907" lon="7.06506">
        <ele>108.71780395508</ele>
        <time>2012-01-25T11:54:34Z</time>
      </trkpt>
      <trkpt lat="43.60917" lon="7.06511">
        <ele>108.76526641846</ele>
        <time>2012-01-25T11:54:40Z</time>
      </trkpt>
      <trkpt lat="43.60919" lon="7.06513">
        <ele>109.01560974121</ele>
        <time>2012-01-25T11:54:42Z</time>
      </trkpt>
      <trkpt lat="43.60925" lon="7.06511">
        <ele>110.09031677246</ele>
        <time>2012-01-25T11:54:45Z</time>
      </trkpt>
      <trkpt lat="43.60925" lon="7.06503">
        <ele>111.25085449219</ele>
        <time>2012-01-25T11:54:50Z</time>
      </trkpt>
      <trkpt lat="43.60923" lon="7.06498">
        <ele>111.35429382324</ele>
        <time>2012-01-25T11:54:53Z</time>
      </trkpt>
      <trkpt lat="43.60921" lon="7.06498">
        <ele>111.24271392822</ele>
        <time>2012-01-25T11:54:55Z</time>
      </trkpt>
      <trkpt lat="43.60921" lon="7.06498">
        <ele>111.11396789551</ele>
        <time>2012-01-25T11:54:56Z</time>
      </trkpt>
      <trkpt lat="43.60927" lon="7.06506">
        <ele>111.18186187744</ele>
        <time>2012-01-25T11:55:03Z</time>
      </trkpt>
      <trkpt lat="43.60935" lon="7.06511">
        <ele>111.83884429932</ele>
        <time>2012-01-25T11:55:07Z</time>
      </trkpt>
      <trkpt lat="43.60945" lon="7.06515">
        <ele>112.8830871582</ele>
        <time>2012-01-25T11:55:13Z</time>
      </trkpt>
      <trkpt lat="43.60949" lon="7.06518">
        <ele>113.22793579102</ele>
        <time>2012-01-25T11:55:19Z</time>
      </trkpt>
      <trkpt lat="43.60949" lon="7.06522">
        <ele>112.73236846924</ele>
        <time>2012-01-25T11:56:08Z</time>
      </trkpt>
      <trkpt lat="43.6096" lon="7.06525">
        <ele>114.71232604981</ele>
        <time>2012-01-25T11:56:48Z</time>
      </trkpt>
      <trkpt lat="43.60964" lon="7.06523">
        <ele>115.79522705078</ele>
        <time>2012-01-25T11:56:51Z</time>
      </trkpt>
      <trkpt lat="43.60966" lon="7.06522">
        <ele>116.38414001465</ele>
        <time>2012-01-25T11:56:53Z</time>
      </trkpt>
      <trkpt lat="43.60974" lon="7.06523">
        <ele>117.63722229004</ele>
        <time>2012-01-25T11:56:59Z</time>
      </trkpt>
      <trkpt lat="43.60981" lon="7.0652">
        <ele>118.33740997315</ele>
        <time>2012-01-25T11:57:03Z</time>
      </trkpt>
      <trkpt lat="43.60984" lon="7.0652">
        <ele>118.60844421387</ele>
        <time>2012-01-25T11:57:05Z</time>
      </trkpt>
      <trkpt lat="43.60988" lon="7.06518">
        <ele>118.94728851318</ele>
        <time>2012-01-25T11:57:07Z</time>
      </trkpt>
      <trkpt lat="43.60994" lon="7.06523">
        <ele>118.94340515137</ele>
        <time>2012-01-25T11:57:11Z</time>
      </trkpt>
      <trkpt lat="43.60998" lon="7.06521">
        <ele>119.36245727539</ele>
        <time>2012-01-25T11:57:13Z</time>
      </trkpt>
      <trkpt lat="43.61004" lon="7.06519">
        <ele>119.89433288574</ele>
        <time>2012-01-25T11:57:16Z</time>
      </trkpt>
      <trkpt lat="43.61013" lon="7.06515">
        <ele>120.6224899292</ele>
        <time>2012-01-25T11:57:21Z</time>
      </trkpt>
      <trkpt lat="43.61014" lon="7.06512">
        <ele>120.82526397705</ele>
        <time>2012-01-25T11:57:22Z</time>
      </trkpt>
      <trkpt lat="43.6102" lon="7.06512">
        <ele>121.16514587402</ele>
        <time>2012-01-25T11:57:26Z</time>
      </trkpt>
      <trkpt lat="43.61028" lon="7.0651">
        <ele>121.63752746582</ele>
        <time>2012-01-25T11:57:30Z</time>
      </trkpt>
      <trkpt lat="43.61036" lon="7.06511">
        <ele>121.71408843994</ele>
        <time>2012-01-25T11:57:33Z</time>
      </trkpt>
      <trkpt lat="43.61043" lon="7.06511">
        <ele>121.81366729736</ele>
        <time>2012-01-25T11:57:36Z</time>
      </trkpt>
      <trkpt lat="43.6105" lon="7.06514">
        <ele>121.9040222168</ele>
        <time>2012-01-25T11:57:39Z</time>
      </trkpt>
      <trkpt lat="43.61056" lon="7.06514">
        <ele>121.99631500244</ele>
        <time>2012-01-25T11:57:41Z</time>
      </trkpt>
      <trkpt lat="43.61065" lon="7.0651">
        <ele>121.87563323975</ele>
        <time>2012-01-25T11:57:45Z</time>
      </trkpt>
      <trkpt lat="43.6107" lon="7.06501">
        <ele>121.98397064209</ele>
        <time>2012-01-25T11:57:49Z</time>
      </trkpt>
      <trkpt lat="43.61073" lon="7.06497">
        <ele>122.04527282715</ele>
        <time>2012-01-25T11:57:51Z</time>
      </trkpt>
      <trkpt lat="43.6108" lon="7.06489">
        <ele>122.0518951416</ele>
        <time>2012-01-25T11:57:57Z</time>
      </trkpt>
      <trkpt lat="43.61088" lon="7.06486">
        <ele>121.91812896728</ele>
        <time>2012-01-25T11:58:03Z</time>
      </trkpt>
      <trkpt lat="43.61097" lon="7.06488">
        <ele>121.73355102539</ele>
        <time>2012-01-25T11:58:09Z</time>
      </trkpt>
      <trkpt lat="43.61106" lon="7.06491">
        <ele>121.44235229492</ele>
        <time>2012-01-25T11:58:15Z</time>
      </trkpt>
      <trkpt lat="43.61114" lon="7.06487">
        <ele>121.26531982422</ele>
        <time>2012-01-25T11:58:20Z</time>
      </trkpt>
      <trkpt lat="43.61122" lon="7.06475">
        <ele>120.82624053955</ele>
        <time>2012-01-25T11:58:27Z</time>
      </trkpt>
      <trkpt lat="43.61126" lon="7.06465">
        <ele>120.35662841797</ele>
        <time>2012-01-25T11:58:33Z</time>
      </trkpt>
      <trkpt lat="43.61128" lon="7.06452">
        <ele>120.15063476562</ele>
        <time>2012-01-25T11:58:39Z</time>
      </trkpt>
      <trkpt lat="43.61127" lon="7.06435">
        <ele>120.46856689453</ele>
        <time>2012-01-25T11:58:46Z</time>
      </trkpt>
      <trkpt lat="43.61124" lon="7.06421">
        <ele>120.99671936035</ele>
        <time>2012-01-25T11:58:52Z</time>
      </trkpt>
      <trkpt lat="43.61123" lon="7.06419">
        <ele>121.14261627197</ele>
        <time>2012-01-25T11:58:53Z</time>
      </trkpt>
      <trkpt lat="43.61115" lon="7.06412">
        <ele>121.91078948975</ele>
        <time>2012-01-25T11:58:57Z</time>
      </trkpt>
      <trkpt lat="43.61107" lon="7.06394">
        <ele>122.95811462402</ele>
        <time>2012-01-25T11:59:02Z</time>
      </trkpt>
      <trkpt lat="43.61106" lon="7.06383">
        <ele>123.19378662109</ele>
        <time>2012-01-25T11:59:05Z</time>
      </trkpt>
      <trkpt lat="43.61108" lon="7.06377">
        <ele>123.12512207031</ele>
        <time>2012-01-25T11:59:07Z</time>
      </trkpt>
      <trkpt lat="43.61109" lon="7.06367">
        <ele>123.08392333984</ele>
        <time>2012-01-25T11:59:13Z</time>
      </trkpt>
      <trkpt lat="43.61108" lon="7.06364">
        <ele>123.12512207031</ele>
        <time>2012-01-25T11:59:40Z</time>
      </trkpt>
      <trkpt lat="43.61105" lon="7.06361">
        <ele>123.20751953125</ele>
        <time>2012-01-25T11:59:53Z</time>
      </trkpt>
      <trkpt lat="43.6111" lon="7.06354">
        <ele>123.07071685791</ele>
        <time>2012-01-25T12:00:26Z</time>
      </trkpt>
      <trkpt lat="43.61116" lon="7.06332">
        <ele>122.6708984375</ele>
        <time>2012-01-25T12:00:30Z</time>
      </trkpt>
      <trkpt lat="43.61118" lon="7.063">
        <ele>123.3102645874</ele>
        <time>2012-01-25T12:00:35Z</time>
      </trkpt>
      <trkpt lat="43.61111" lon="7.06273">
        <ele>123.9755859375</ele>
        <time>2012-01-25T12:00:40Z</time>
      </trkpt>
      <trkpt lat="43.61111" lon="7.06268">
        <ele>124.00305175781</ele>
        <time>2012-01-25T12:00:41Z</time>
      </trkpt>
      <trkpt lat="43.61111" lon="7.06263">
        <ele>123.9755859375</ele>
        <time>2012-01-25T12:00:42Z</time>
      </trkpt>
      <trkpt lat="43.61112" lon="7.06241">
        <ele>123.94812011719</ele>
        <time>2012-01-25T12:00:46Z</time>
      </trkpt>
      <trkpt lat="43.61115" lon="7.06223">
        <ele>123.755859375</ele>
        <time>2012-01-25T12:00:51Z</time>
      </trkpt>
      <trkpt lat="43.61113" lon="7.06214">
        <ele>124.12908172607</ele>
        <time>2012-01-25T12:00:57Z</time>
      </trkpt>
      <trkpt lat="43.61111" lon="7.0621">
        <ele>124.40536499023</ele>
        <time>2012-01-25T12:01:00Z</time>
      </trkpt>
      <trkpt lat="43.61109" lon="7.06202">
        <ele>124.91767883301</ele>
        <time>2012-01-25T12:01:03Z</time>
      </trkpt>
      <trkpt lat="43.611" lon="7.06195">
        <ele>125.7667388916</ele>
        <time>2012-01-25T12:01:06Z</time>
      </trkpt>
      <trkpt lat="43.61098" lon="7.06193">
        <ele>125.95371246338</ele>
        <time>2012-01-25T12:01:07Z</time>
      </trkpt>
      <trkpt lat="43.61081" lon="7.06185">
        <ele>127.53312683106</ele>
        <time>2012-01-25T12:01:13Z</time>
      </trkpt>
      <trkpt lat="43.61065" lon="7.06178">
        <ele>129.22099304199</ele>
        <time>2012-01-25T12:01:19Z</time>
      </trkpt>
      <trkpt lat="43.61044" lon="7.06175">
        <ele>130.69100952148</ele>
        <time>2012-01-25T12:01:26Z</time>
      </trkpt>
      <trkpt lat="43.61029" lon="7.06176">
        <ele>131.54879760742</ele>
        <time>2012-01-25T12:01:31Z</time>
      </trkpt>
      <trkpt lat="43.61012" lon="7.06185">
        <ele>131.91525268555</ele>
        <time>2012-01-25T12:01:37Z</time>
      </trkpt>
      <trkpt lat="43.60998" lon="7.06188">
        <ele>132.32553100586</ele>
        <time>2012-01-25T12:01:42Z</time>
      </trkpt>
      <trkpt lat="43.60989" lon="7.06183">
        <ele>132.78387451172</ele>
        <time>2012-01-25T12:01:47Z</time>
      </trkpt>
      <trkpt lat="43.60984" lon="7.06175">
        <ele>133.2868347168</ele>
        <time>2012-01-25T12:01:53Z</time>
      </trkpt>
      <trkpt lat="43.60975" lon="7.06162">
        <ele>134.0696105957</ele>
        <time>2012-01-25T12:01:59Z</time>
      </trkpt>
      <trkpt lat="43.60962" lon="7.06142">
        <ele>134.85696411133</ele>
        <time>2012-01-25T12:02:05Z</time>
      </trkpt>
      <trkpt lat="43.60954" lon="7.0612">
        <ele>135.67948913574</ele>
        <time>2012-01-25T12:02:10Z</time>
      </trkpt>
      <trkpt lat="43.60957" lon="7.06098">
        <ele>136.46913146973</ele>
        <time>2012-01-25T12:02:15Z</time>
      </trkpt>
      <trkpt lat="43.60963" lon="7.06086">
        <ele>136.90515136719</ele>
        <time>2012-01-25T12:02:19Z</time>
      </trkpt>
      <trkpt lat="43.60978" lon="7.06078">
        <ele>137.0050201416</ele>
        <time>2012-01-25T12:02:25Z</time>
      </trkpt>
      <trkpt lat="43.60985" lon="7.0607">
        <ele>137.04107666016</ele>
        <time>2012-01-25T12:02:30Z</time>
      </trkpt>
      <trkpt lat="43.60987" lon="7.06068">
        <ele>137.00158691406</ele>
        <time>2012-01-25T12:02:34Z</time>
      </trkpt>
      <trkpt lat="43.60988" lon="7.06067">
        <ele>137.00845336914</ele>
        <time>2012-01-25T12:02:36Z</time>
      </trkpt>
      <trkpt lat="43.60991" lon="7.06068">
        <ele>136.88656616211</ele>
        <time>2012-01-25T12:02:41Z</time>
      </trkpt>
      <trkpt lat="43.60996" lon="7.06066">
        <ele>136.76126098633</ele>
        <time>2012-01-25T12:02:45Z</time>
      </trkpt>
      <trkpt lat="43.61015" lon="7.0606">
        <ele>135.78231811523</ele>
        <time>2012-01-25T12:02:50Z</time>
      </trkpt>
      <trkpt lat="43.61039" lon="7.0606">
        <ele>134.06741333008</ele>
        <time>2012-01-25T12:02:54Z</time>
      </trkpt>
      <trkpt lat="43.61071" lon="7.06056">
        <ele>131.36685180664</ele>
        <time>2012-01-25T12:02:58Z</time>
      </trkpt>
      <trkpt lat="43.61089" lon="7.06037">
        <ele>129.32810974121</ele>
        <time>2012-01-25T12:03:01Z</time>
      </trkpt>
      <trkpt lat="43.611" lon="7.06027">
        <ele>128.25450134277</ele>
        <time>2012-01-25T12:03:03Z</time>
      </trkpt>
      <trkpt lat="43.61104" lon="7.06025">
        <ele>127.81288146973</ele>
        <time>2012-01-25T12:03:04Z</time>
      </trkpt>
      <trkpt lat="43.61108" lon="7.06026">
        <ele>127.34060668945</ele>
        <time>2012-01-25T12:03:05Z</time>
      </trkpt>
      <trkpt lat="43.61111" lon="7.06026">
        <ele>126.96337890625</ele>
        <time>2012-01-25T12:03:07Z</time>
      </trkpt>
      <trkpt lat="43.61113" lon="7.06026">
        <ele>126.79858398438</ele>
        <time>2012-01-25T12:03:08Z</time>
      </trkpt>
      <trkpt lat="43.61121" lon="7.06023">
        <ele>125.93341064453</ele>
        <time>2012-01-25T12:03:12Z</time>
      </trkpt>
      <trkpt lat="43.61124" lon="7.06023">
        <ele>125.60382080078</ele>
        <time>2012-01-25T12:03:13Z</time>
      </trkpt>
      <trkpt lat="43.61137" lon="7.06018">
        <ele>124.24426269531</ele>
        <time>2012-01-25T12:03:18Z</time>
      </trkpt>
      <trkpt lat="43.61144" lon="7.06004">
        <ele>123.28198242188</ele>
        <time>2012-01-25T12:03:24Z</time>
      </trkpt>
      <trkpt lat="43.61144" lon="7.05996">
        <ele>123.28198242188</ele>
        <time>2012-01-25T12:03:28Z</time>
      </trkpt>
      <trkpt lat="43.61142" lon="7.05993">
        <ele>123.556640625</ele>
        <time>2012-01-25T12:03:30Z</time>
      </trkpt>
      <trkpt lat="43.6114" lon="7.05991">
        <ele>123.88623046875</ele>
        <time>2012-01-25T12:03:32Z</time>
      </trkpt>
      <trkpt lat="43.61131" lon="7.05983">
        <ele>124.86224365234</ele>
        <time>2012-01-25T12:03:37Z</time>
      </trkpt>
      <trkpt lat="43.61117" lon="7.05971">
        <ele>126.38659667969</ele>
        <time>2012-01-25T12:03:43Z</time>
      </trkpt>
      <trkpt lat="43.61101" lon="7.05954">
        <ele>128.43432617188</ele>
        <time>2012-01-25T12:03:49Z</time>
      </trkpt>
      <trkpt lat="43.61083" lon="7.05933">
        <ele>130.26754760742</ele>
        <time>2012-01-25T12:03:56Z</time>
      </trkpt>
      <trkpt lat="43.61061" lon="7.05917">
        <ele>132.15582275391</ele>
        <time>2012-01-25T12:04:04Z</time>
      </trkpt>
      <trkpt lat="43.61055" lon="7.05908">
        <ele>132.37278747559</ele>
        <time>2012-01-25T12:04:07Z</time>
      </trkpt>
      <trkpt lat="43.61055" lon="7.05904">
        <ele>132.09812927246</ele>
        <time>2012-01-25T12:04:08Z</time>
      </trkpt>
      <trkpt lat="43.61054" lon="7.05884">
        <ele>130.90156555176</ele>
        <time>2012-01-25T12:04:13Z</time>
      </trkpt>
      <trkpt lat="43.61062" lon="7.05868">
        <ele>129.55197143555</ele>
        <time>2012-01-25T12:04:17Z</time>
      </trkpt>
      <trkpt lat="43.6106" lon="7.05858">
        <ele>129.27661132812</ele>
        <time>2012-01-25T12:04:21Z</time>
      </trkpt>
      <trkpt lat="43.61046" lon="7.05848">
        <ele>129.76103210449</ele>
        <time>2012-01-25T12:04:26Z</time>
      </trkpt>
      <trkpt lat="43.61033" lon="7.05836">
        <ele>129.81253051758</ele>
        <time>2012-01-25T12:04:32Z</time>
      </trkpt>
      <trkpt lat="43.61018" lon="7.05822">
        <ele>130.46298217773</ele>
        <time>2012-01-25T12:04:40Z</time>
      </trkpt>
      <trkpt lat="43.61002" lon="7.05815">
        <ele>132.72720336914</ele>
        <time>2012-01-25T12:04:48Z</time>
      </trkpt>
      <trkpt lat="43.60987" lon="7.0581">
        <ele>133.91778564453</ele>
        <time>2012-01-25T12:04:55Z</time>
      </trkpt>
      <trkpt lat="43.6097" lon="7.05807">
        <ele>135.345703125</ele>
        <time>2012-01-25T12:05:03Z</time>
      </trkpt>
      <trkpt lat="43.60958" lon="7.05804">
        <ele>135.80403137207</ele>
        <time>2012-01-25T12:05:10Z</time>
      </trkpt>
      <trkpt lat="43.60949" lon="7.05786">
        <ele>134.60412597656</ele>
        <time>2012-01-25T12:07:03Z</time>
      </trkpt>
      <trkpt lat="43.60934" lon="7.05772">
        <ele>133.39170837402</ele>
        <time>2012-01-25T12:07:12Z</time>
      </trkpt>
      <trkpt lat="43.60922" lon="7.05762">
        <ele>132.01397705078</ele>
        <time>2012-01-25T12:07:19Z</time>
      </trkpt>
      <trkpt lat="43.6091" lon="7.05748">
        <ele>129.95559692383</ele>
        <time>2012-01-25T12:07:24Z</time>
      </trkpt>
      <trkpt lat="43.60893" lon="7.05725">
        <ele>127.30514526367</ele>
        <time>2012-01-25T12:07:28Z</time>
      </trkpt>
      <trkpt lat="43.60886" lon="7.05719">
        <ele>126.74672698975</ele>
        <time>2012-01-25T12:07:29Z</time>
      </trkpt>
      <trkpt lat="43.60874" lon="7.05712">
        <ele>126.47550201416</ele>
        <time>2012-01-25T12:07:31Z</time>
      </trkpt>
      <trkpt lat="43.60861" lon="7.05698">
        <ele>125.37394714356</ele>
        <time>2012-01-25T12:07:34Z</time>
      </trkpt>
      <trkpt lat="43.60857" lon="7.05693">
        <ele>125.19149017334</ele>
        <time>2012-01-25T12:07:35Z</time>
      </trkpt>
      <trkpt lat="43.60848" lon="7.05682">
        <ele>124.6250076294</ele>
        <time>2012-01-25T12:07:37Z</time>
      </trkpt>
      <trkpt lat="43.60838" lon="7.05673">
        <ele>124.3486328125</ele>
        <time>2012-01-25T12:07:39Z</time>
      </trkpt>
      <trkpt lat="43.60824" lon="7.05659">
        <ele>123.75665283203</ele>
        <time>2012-01-25T12:07:42Z</time>
      </trkpt>
      <trkpt lat="43.60818" lon="7.05654">
        <ele>123.6399230957</ele>
        <time>2012-01-25T12:07:43Z</time>
      </trkpt>
      <trkpt lat="43.60803" lon="7.05643">
        <ele>123.3717880249</ele>
        <time>2012-01-25T12:07:46Z</time>
      </trkpt>
      <trkpt lat="43.60799" lon="7.05637">
        <ele>123.02587127685</ele>
        <time>2012-01-25T12:07:47Z</time>
      </trkpt>
      <trkpt lat="43.60792" lon="7.05614">
        <ele>121.25617218018</ele>
        <time>2012-01-25T12:07:50Z</time>
      </trkpt>
      <trkpt lat="43.60791" lon="7.05608">
        <ele>120.94058227539</ele>
        <time>2012-01-25T12:07:51Z</time>
      </trkpt>
      <trkpt lat="43.60792" lon="7.05602">
        <ele>120.65729522705</ele>
        <time>2012-01-25T12:07:54Z</time>
      </trkpt>
      <trkpt lat="43.60793" lon="7.05603">
        <ele>120.61932373047</ele>
        <time>2012-01-25T12:07:55Z</time>
      </trkpt>
      <trkpt lat="43.60795" lon="7.05604">
        <ele>120.56636810303</ele>
        <time>2012-01-25T12:08:01Z</time>
      </trkpt>
      <trkpt lat="43.60801" lon="7.05606">
        <ele>120.26619720459</ele>
        <time>2012-01-25T12:08:11Z</time>
      </trkpt>
      <trkpt lat="43.60805" lon="7.05593">
        <ele>120.01025390625</ele>
        <time>2012-01-25T12:08:15Z</time>
      </trkpt>
      <trkpt lat="43.60814" lon="7.05575">
        <ele>120</ele>
        <time>2012-01-25T12:08:20Z</time>
      </trkpt>
      <trkpt lat="43.60817" lon="7.05574">
        <ele>120</ele>
        <time>2012-01-25T12:08:21Z</time>
      </trkpt>
      <trkpt lat="43.60826" lon="7.05565">
        <ele>120</ele>
        <time>2012-01-25T12:08:24Z</time>
      </trkpt>
      <trkpt lat="43.60836" lon="7.0555">
        <ele>120</ele>
        <time>2012-01-25T12:08:28Z</time>
      </trkpt>
      <trkpt lat="43.60851" lon="7.05534">
        <ele>120</ele>
        <time>2012-01-25T12:08:32Z</time>
      </trkpt>
      <trkpt lat="43.60855" lon="7.05532">
        <ele>120</ele>
        <time>2012-01-25T12:08:33Z</time>
      </trkpt>
      <trkpt lat="43.60859" lon="7.05533">
        <ele>120</ele>
        <time>2012-01-25T12:08:35Z</time>
      </trkpt>
      <trkpt lat="43.60856" lon="7.05537">
        <ele>120</ele>
        <time>2012-01-25T12:08:38Z</time>
      </trkpt>
      <trkpt lat="43.60854" lon="7.05537">
        <ele>120</ele>
        <time>2012-01-25T12:08:40Z</time>
      </trkpt>
      <trkpt lat="43.60853" lon="7.05538">
        <ele>120</ele>
        <time>2012-01-25T12:08:43Z</time>
      </trkpt>
      <trkpt lat="43.60852" lon="7.05533">
        <ele>120</ele>
        <time>2012-01-25T12:08:52Z</time>
      </trkpt>
      <trkpt lat="43.60852" lon="7.05531">
        <ele>120</ele>
        <time>2012-01-25T12:08:53Z</time>
      </trkpt>
      <trkpt lat="43.60856" lon="7.05528">
        <ele>120</ele>
        <time>2012-01-25T12:08:56Z</time>
      </trkpt>
      <trkpt lat="43.60868" lon="7.05522">
        <ele>120</ele>
        <time>2012-01-25T12:09:01Z</time>
      </trkpt>
      <trkpt lat="43.60887" lon="7.05521">
        <ele>120</ele>
        <time>2012-01-25T12:09:08Z</time>
      </trkpt>
      <trkpt lat="43.609" lon="7.05525">
        <ele>120</ele>
        <time>2012-01-25T12:09:14Z</time>
      </trkpt>
      <trkpt lat="43.6091" lon="7.05529">
        <ele>120</ele>
        <time>2012-01-25T12:09:18Z</time>
      </trkpt>
      <trkpt lat="43.60923" lon="7.05528">
        <ele>120</ele>
        <time>2012-01-25T12:09:23Z</time>
      </trkpt>
      <trkpt lat="43.60941" lon="7.05528">
        <ele>120</ele>
        <time>2012-01-25T12:09:30Z</time>
      </trkpt>
      <trkpt lat="43.6096" lon="7.05533">
        <ele>120</ele>
        <time>2012-01-25T12:09:37Z</time>
      </trkpt>
      <trkpt lat="43.60974" lon="7.05539">
        <ele>120</ele>
        <time>2012-01-25T12:09:42Z</time>
      </trkpt>
      <trkpt lat="43.60989" lon="7.05553">
        <ele>120</ele>
        <time>2012-01-25T12:09:46Z</time>
      </trkpt>
      <trkpt lat="43.61" lon="7.05568">
        <ele>120</ele>
        <time>2012-01-25T12:09:50Z</time>
      </trkpt>
      <trkpt lat="43.61006" lon="7.05577">
        <ele>120</ele>
        <time>2012-01-25T12:09:52Z</time>
      </trkpt>
      <trkpt lat="43.61013" lon="7.05579">
        <ele>120</ele>
        <time>2012-01-25T12:09:54Z</time>
      </trkpt>
      <trkpt lat="43.61026" lon="7.05576">
        <ele>120</ele>
        <time>2012-01-25T12:09:57Z</time>
      </trkpt>
      <trkpt lat="43.61035" lon="7.05584">
        <ele>120</ele>
        <time>2012-01-25T12:10:00Z</time>
      </trkpt>
      <trkpt lat="43.61038" lon="7.05586">
        <ele>120</ele>
        <time>2012-01-25T12:10:01Z</time>
      </trkpt>
      <trkpt lat="43.61054" lon="7.05591">
        <ele>120</ele>
        <time>2012-01-25T12:10:05Z</time>
      </trkpt>
      <trkpt lat="43.61064" lon="7.05593">
        <ele>120</ele>
        <time>2012-01-25T12:10:07Z</time>
      </trkpt>
      <trkpt lat="43.61073" lon="7.05594">
        <ele>120</ele>
        <time>2012-01-25T12:10:09Z</time>
      </trkpt>
      <trkpt lat="43.61087" lon="7.05606">
        <ele>120</ele>
        <time>2012-01-25T12:10:12Z</time>
      </trkpt>
      <trkpt lat="43.61099" lon="7.0562">
        <ele>120</ele>
        <time>2012-01-25T12:10:15Z</time>
      </trkpt>
      <trkpt lat="43.61107" lon="7.0563">
        <ele>120</ele>
        <time>2012-01-25T12:10:17Z</time>
      </trkpt>
      <trkpt lat="43.61114" lon="7.0564">
        <ele>120</ele>
        <time>2012-01-25T12:10:19Z</time>
      </trkpt>
      <trkpt lat="43.61122" lon="7.05657">
        <ele>120</ele>
        <time>2012-01-25T12:10:22Z</time>
      </trkpt>
      <trkpt lat="43.61129" lon="7.05669">
        <ele>120</ele>
        <time>2012-01-25T12:10:25Z</time>
      </trkpt>
      <trkpt lat="43.61132" lon="7.0567">
        <ele>120</ele>
        <time>2012-01-25T12:10:26Z</time>
      </trkpt>
      <trkpt lat="43.61135" lon="7.05678">
        <ele>120</ele>
        <time>2012-01-25T12:10:29Z</time>
      </trkpt>
      <trkpt lat="43.61135" lon="7.05688">
        <ele>120</ele>
        <time>2012-01-25T12:10:33Z</time>
      </trkpt>
      <trkpt lat="43.61135" lon="7.05689">
        <ele>120</ele>
        <time>2012-01-25T12:10:35Z</time>
      </trkpt>
      <trkpt lat="43.61135" lon="7.0569">
        <ele>120</ele>
        <time>2012-01-25T12:10:37Z</time>
      </trkpt>
      <trkpt lat="43.6113" lon="7.05703">
        <ele>120</ele>
        <time>2012-01-25T12:11:52Z</time>
      </trkpt>
      <trkpt lat="43.61131" lon="7.05705">
        <ele>120</ele>
        <time>2012-01-25T12:11:53Z</time>
      </trkpt>
      <trkpt lat="43.61132" lon="7.05706">
        <ele>120</ele>
        <time>2012-01-25T12:11:54Z</time>
      </trkpt>
      <trkpt lat="43.61137" lon="7.05714">
        <ele>120</ele>
        <time>2012-01-25T12:11:57Z</time>
      </trkpt>
      <trkpt lat="43.61139" lon="7.05721">
        <ele>120</ele>
        <time>2012-01-25T12:11:59Z</time>
      </trkpt>
      <trkpt lat="43.61143" lon="7.05732">
        <ele>120</ele>
        <time>2012-01-25T12:12:02Z</time>
      </trkpt>
      <trkpt lat="43.61148" lon="7.05744">
        <ele>120</ele>
        <time>2012-01-25T12:12:06Z</time>
      </trkpt>
      <trkpt lat="43.61156" lon="7.05762">
        <ele>120</ele>
        <time>2012-01-25T12:12:11Z</time>
      </trkpt>
      <trkpt lat="43.61164" lon="7.05782">
        <ele>120</ele>
        <time>2012-01-25T12:12:15Z</time>
      </trkpt>
      <trkpt lat="43.61168" lon="7.05803">
        <ele>120</ele>
        <time>2012-01-25T12:12:18Z</time>
      </trkpt>
      <trkpt lat="43.61168" lon="7.05808">
        <ele>120</ele>
        <time>2012-01-25T12:12:19Z</time>
      </trkpt>
      <trkpt lat="43.61169" lon="7.05813">
        <ele>120</ele>
        <time>2012-01-25T12:12:20Z</time>
      </trkpt>
      <trkpt lat="43.61167" lon="7.05821">
        <ele>120</ele>
        <time>2012-01-25T12:12:22Z</time>
      </trkpt>
      <trkpt lat="43.61161" lon="7.05832">
        <ele>120</ele>
        <time>2012-01-25T12:12:26Z</time>
      </trkpt>
      <trkpt lat="43.6116" lon="7.05842">
        <ele>120</ele>
        <time>2012-01-25T12:12:29Z</time>
      </trkpt>
      <trkpt lat="43.61156" lon="7.05857">
        <ele>120</ele>
        <time>2012-01-25T12:12:33Z</time>
      </trkpt>
      <trkpt lat="43.6116" lon="7.05874">
        <ele>120</ele>
        <time>2012-01-25T12:12:38Z</time>
      </trkpt>
      <trkpt lat="43.61167" lon="7.05883">
        <ele>120</ele>
        <time>2012-01-25T12:12:43Z</time>
      </trkpt>
      <trkpt lat="43.61168" lon="7.05896">
        <ele>119.744140625</ele>
        <time>2012-01-25T12:12:48Z</time>
      </trkpt>
      <trkpt lat="43.61171" lon="7.05919">
        <ele>119.07154083252</ele>
        <time>2012-01-25T12:12:55Z</time>
      </trkpt>
      <trkpt lat="43.61175" lon="7.05938">
        <ele>119.54535675049</ele>
        <time>2012-01-25T12:13:01Z</time>
      </trkpt>
      <trkpt lat="43.61177" lon="7.05961">
        <ele>119.63946533203</ele>
        <time>2012-01-25T12:13:08Z</time>
      </trkpt>
      <trkpt lat="43.61176" lon="7.05971">
        <ele>119.65319824219</ele>
        <time>2012-01-25T12:13:13Z</time>
      </trkpt>
      <trkpt lat="43.61178" lon="7.05973">
        <ele>119.61096954346</ele>
        <time>2012-01-25T12:13:14Z</time>
      </trkpt>
      <trkpt lat="43.61183" lon="7.05983">
        <ele>119.64029693603</ele>
        <time>2012-01-25T12:13:20Z</time>
      </trkpt>
      <trkpt lat="43.61188" lon="7.05997">
        <ele>119.92425537109</ele>
        <time>2012-01-25T12:13:25Z</time>
      </trkpt>
      <trkpt lat="43.61199" lon="7.06021">
        <ele>120.57917785644</ele>
        <time>2012-01-25T12:13:30Z</time>
      </trkpt>
      <trkpt lat="43.61207" lon="7.0603">
        <ele>120.58464813232</ele>
        <time>2012-01-25T12:13:34Z</time>
      </trkpt>
      <trkpt lat="43.61205" lon="7.06036">
        <ele>120.7333984375</ele>
        <time>2012-01-25T12:13:37Z</time>
      </trkpt>
      <trkpt lat="43.61202" lon="7.06033">
        <ele>120.77492523193</ele>
        <time>2012-01-25T12:13:40Z</time>
      </trkpt>
      <trkpt lat="43.61202" lon="7.06032">
        <ele>120.77219390869</ele>
        <time>2012-01-25T12:13:41Z</time>
      </trkpt>
      <trkpt lat="43.612" lon="7.06028">
        <ele>120.79141998291</ele>
        <time>2012-01-25T12:13:44Z</time>
      </trkpt>
      <trkpt lat="43.61198" lon="7.06032">
        <ele>120.90112304688</ele>
        <time>2012-01-25T12:13:47Z</time>
      </trkpt>
      <trkpt lat="43.612" lon="7.06038">
        <ele>120.8674697876</ele>
        <time>2012-01-25T12:13:51Z</time>
      </trkpt>
      <trkpt lat="43.61199" lon="7.06027">
        <ele>120.80920410156</ele>
        <time>2012-01-25T12:13:54Z</time>
      </trkpt>
      <trkpt lat="43.61193" lon="7.06014">
        <ele>120.4966506958</ele>
        <time>2012-01-25T12:13:56Z</time>
      </trkpt>
      <trkpt lat="43.61189" lon="7.06001">
        <ele>120.0241317749</ele>
        <time>2012-01-25T12:13:58Z</time>
      </trkpt>
      <trkpt lat="43.61185" lon="7.05989">
        <ele>119.7484664917</ele>
        <time>2012-01-25T12:14:01Z</time>
      </trkpt>
      <trkpt lat="43.61185" lon="7.05989">
        <ele>119.73474884033</ele>
        <time>2012-01-25T12:14:02Z</time>
      </trkpt>
      <trkpt lat="43.61185" lon="7.05991">
        <ele>119.79155731201</ele>
        <time>2012-01-25T12:14:05Z</time>
      </trkpt>
      <trkpt lat="43.61185" lon="7.05993">
        <ele>119.81756591797</ele>
        <time>2012-01-25T12:14:06Z</time>
      </trkpt>
      <trkpt lat="43.6119" lon="7.06003">
        <ele>120.08068847656</ele>
        <time>2012-01-25T12:14:10Z</time>
      </trkpt>
      <trkpt lat="43.61198" lon="7.06016">
        <ele>120.44184875488</ele>
        <time>2012-01-25T12:14:16Z</time>
      </trkpt>
      <trkpt lat="43.61206" lon="7.06027">
        <ele>120.55171203613</ele>
        <time>2012-01-25T12:14:22Z</time>
      </trkpt>
      <trkpt lat="43.61211" lon="7.06036">
        <ele>120.59564208984</ele>
        <time>2012-01-25T12:14:28Z</time>
      </trkpt>
      <trkpt lat="43.61211" lon="7.06038">
        <ele>120.6396560669</ele>
        <time>2012-01-25T12:14:29Z</time>
      </trkpt>
      <trkpt lat="43.61215" lon="7.06043">
        <ele>120.67977905273</ele>
        <time>2012-01-25T12:14:33Z</time>
      </trkpt>
      <trkpt lat="43.61226" lon="7.06034">
        <ele>120.04969787598</ele>
        <time>2012-01-25T12:14:36Z</time>
      </trkpt>
      <trkpt lat="43.61241" lon="7.0601">
        <ele>118.67373657227</ele>
        <time>2012-01-25T12:14:40Z</time>
      </trkpt>
      <trkpt lat="43.61248" lon="7.06002">
        <ele>118.16733551025</ele>
        <time>2012-01-25T12:14:42Z</time>
      </trkpt>
      <trkpt lat="43.61252" lon="7.06001">
        <ele>118.02192687988</ele>
        <time>2012-01-25T12:14:43Z</time>
      </trkpt>
      <trkpt lat="43.61262" lon="7.05997">
        <ele>118.10320281982</ele>
        <time>2012-01-25T12:14:45Z</time>
      </trkpt>
      <trkpt lat="43.61273" lon="7.05982">
        <ele>118.64050292969</ele>
        <time>2012-01-25T12:14:48Z</time>
      </trkpt>
      <trkpt lat="43.61275" lon="7.05976">
        <ele>118.85507965088</ele>
        <time>2012-01-25T12:14:49Z</time>
      </trkpt>
      <trkpt lat="43.6128" lon="7.0596">
        <ele>119</ele>
        <time>2012-01-25T12:14:52Z</time>
      </trkpt>
      <trkpt lat="43.61283" lon="7.05958">
        <ele>119</ele>
        <time>2012-01-25T12:14:53Z</time>
      </trkpt>
      <trkpt lat="43.61287" lon="7.05959">
        <ele>119</ele>
        <time>2012-01-25T12:14:55Z</time>
      </trkpt>
      <trkpt lat="43.61289" lon="7.05957">
        <ele>119</ele>
        <time>2012-01-25T12:14:56Z</time>
      </trkpt>
      <trkpt lat="43.61301" lon="7.05955">
        <ele>119</ele>
        <time>2012-01-25T12:14:59Z</time>
      </trkpt>
      <trkpt lat="43.61319" lon="7.05962">
        <ele>119</ele>
        <time>2012-01-25T12:15:02Z</time>
      </trkpt>
      <trkpt lat="43.61329" lon="7.05968">
        <ele>119</ele>
        <time>2012-01-25T12:15:04Z</time>
      </trkpt>
      <trkpt lat="43.61337" lon="7.05973">
        <ele>118.95979309082</ele>
        <time>2012-01-25T12:15:06Z</time>
      </trkpt>
      <trkpt lat="43.6134" lon="7.05976">
        <ele>118.85164642334</ele>
        <time>2012-01-25T12:15:09Z</time>
      </trkpt>
      <trkpt lat="43.61352" lon="7.05984">
        <ele>118.57527160644</ele>
        <time>2012-01-25T12:15:33Z</time>
      </trkpt>
      <trkpt lat="43.61354" lon="7.05988">
        <ele>118.42077636719</ele>
        <time>2012-01-25T12:15:35Z</time>
      </trkpt>
      <trkpt lat="43.61356" lon="7.05992">
        <ele>118.30233001709</ele>
        <time>2012-01-25T12:15:38Z</time>
      </trkpt>
      <trkpt lat="43.61366" lon="7.06001">
        <ele>118</ele>
        <time>2012-01-25T12:15:45Z</time>
      </trkpt>
      <trkpt lat="43.61378" lon="7.0602">
        <ele>118</ele>
        <time>2012-01-25T12:15:51Z</time>
      </trkpt>
      <trkpt lat="43.61387" lon="7.06039">
        <ele>118</ele>
        <time>2012-01-25T12:15:54Z</time>
      </trkpt>
      <trkpt lat="43.61404" lon="7.06079">
        <ele>112.2057800293</ele>
        <time>2012-01-25T12:15:59Z</time>
      </trkpt>
      <trkpt lat="43.61407" lon="7.06088">
        <ele>110.98470306397</ele>
        <time>2012-01-25T12:16:00Z</time>
      </trkpt>
      <trkpt lat="43.61414" lon="7.06115">
        <ele>107.99168395996</ele>
        <time>2012-01-25T12:16:03Z</time>
      </trkpt>
      <trkpt lat="43.61423" lon="7.0615">
        <ele>104.95375061035</ele>
        <time>2012-01-25T12:16:07Z</time>
      </trkpt>
      <trkpt lat="43.61425" lon="7.06158">
        <ele>104.33576965332</ele>
        <time>2012-01-25T12:16:08Z</time>
      </trkpt>
      <trkpt lat="43.6143" lon="7.06171">
        <ele>103.3480758667</ele>
        <time>2012-01-25T12:16:10Z</time>
      </trkpt>
      <trkpt lat="43.61441" lon="7.06202">
        <ele>101.60174560547</ele>
        <time>2012-01-25T12:16:14Z</time>
      </trkpt>
      <trkpt lat="43.61446" lon="7.06218">
        <ele>100.32772827148</ele>
        <time>2012-01-25T12:16:16Z</time>
      </trkpt>
      <trkpt lat="43.61454" lon="7.06232">
        <ele>99.390922546387</ele>
        <time>2012-01-25T12:16:18Z</time>
      </trkpt>
      <trkpt lat="43.61458" lon="7.06239">
        <ele>99.086364746094</ele>
        <time>2012-01-25T12:16:19Z</time>
      </trkpt>
      <trkpt lat="43.61475" lon="7.06252">
        <ele>99.188095092773</ele>
        <time>2012-01-25T12:16:22Z</time>
      </trkpt>
      <trkpt lat="43.61481" lon="7.06255">
        <ele>99.632194519043</ele>
        <time>2012-01-25T12:16:23Z</time>
      </trkpt>
      <trkpt lat="43.61493" lon="7.06263">
        <ele>100.68212127685</ele>
        <time>2012-01-25T12:16:25Z</time>
      </trkpt>
      <trkpt lat="43.61501" lon="7.06278">
        <ele>101.07655334473</ele>
        <time>2012-01-25T12:16:27Z</time>
      </trkpt>
      <trkpt lat="43.61504" lon="7.06285">
        <ele>101.22485351562</ele>
        <time>2012-01-25T12:16:28Z</time>
      </trkpt>
      <trkpt lat="43.61509" lon="7.06308">
        <ele>100.77372741699</ele>
        <time>2012-01-25T12:16:31Z</time>
      </trkpt>
      <trkpt lat="43.61509" lon="7.06317">
        <ele>100.0802154541</ele>
        <time>2012-01-25T12:16:32Z</time>
      </trkpt>
      <trkpt lat="43.61509" lon="7.06327">
        <ele>99.438201904297</ele>
        <time>2012-01-25T12:16:33Z</time>
      </trkpt>
      <trkpt lat="43.6151" lon="7.06345">
        <ele>98.452369689941</ele>
        <time>2012-01-25T12:16:35Z</time>
      </trkpt>
      <trkpt lat="43.61512" lon="7.06379">
        <ele>96.443603515625</ele>
        <time>2012-01-25T12:16:39Z</time>
      </trkpt>
      <trkpt lat="43.61513" lon="7.06388">
        <ele>95.870254516602</ele>
        <time>2012-01-25T12:16:40Z</time>
      </trkpt>
      <trkpt lat="43.6151" lon="7.06425">
        <ele>93.012062072754</ele>
        <time>2012-01-25T12:16:44Z</time>
      </trkpt>
      <trkpt lat="43.61504" lon="7.06444">
        <ele>90.816513061523</ele>
        <time>2012-01-25T12:16:47Z</time>
      </trkpt>
      <trkpt lat="43.61501" lon="7.06457">
        <ele>89.215835571289</ele>
        <time>2012-01-25T12:16:49Z</time>
      </trkpt>
      <trkpt lat="43.61493" lon="7.06471">
        <ele>87.570358276367</ele>
        <time>2012-01-25T12:16:52Z</time>
      </trkpt>
      <trkpt lat="43.61488" lon="7.06482">
        <ele>86.451126098633</ele>
        <time>2012-01-25T12:16:54Z</time>
      </trkpt>
      <trkpt lat="43.61486" lon="7.06486">
        <ele>85.946441650391</ele>
        <time>2012-01-25T12:16:55Z</time>
      </trkpt>
      <trkpt lat="43.61483" lon="7.06493">
        <ele>85.273529052734</ele>
        <time>2012-01-25T12:16:56Z</time>
      </trkpt>
      <trkpt lat="43.61474" lon="7.06511">
        <ele>83.715339660645</ele>
        <time>2012-01-25T12:16:59Z</time>
      </trkpt>
      <trkpt lat="43.61468" lon="7.06524">
        <ele>83.275276184082</ele>
        <time>2012-01-25T12:17:01Z</time>
      </trkpt>
      <trkpt lat="43.61448" lon="7.06556">
        <ele>81.875305175781</ele>
        <time>2012-01-25T12:17:07Z</time>
      </trkpt>
      <trkpt lat="43.61444" lon="7.06564">
        <ele>81.829330444336</ele>
        <time>2012-01-25T12:17:09Z</time>
      </trkpt>
      <trkpt lat="43.61441" lon="7.06573">
        <ele>82.29029083252</ele>
        <time>2012-01-25T12:17:11Z</time>
      </trkpt>
      <trkpt lat="43.61437" lon="7.06584">
        <ele>82.78295135498</ele>
        <time>2012-01-25T12:17:13Z</time>
      </trkpt>
      <trkpt lat="43.61431" lon="7.06599">
        <ele>82.018608093262</ele>
        <time>2012-01-25T12:17:16Z</time>
      </trkpt>
      <trkpt lat="43.61428" lon="7.06602">
        <ele>81.597885131836</ele>
        <time>2012-01-25T12:17:17Z</time>
      </trkpt>
      <trkpt lat="43.61415" lon="7.06622">
        <ele>80.513412475586</ele>
        <time>2012-01-25T12:17:20Z</time>
      </trkpt>
      <trkpt lat="43.61388" lon="7.06665">
        <ele>80.177780151367</ele>
        <time>2012-01-25T12:17:26Z</time>
      </trkpt>
      <trkpt lat="43.6136" lon="7.06696">
        <ele>80</ele>
        <time>2012-01-25T12:17:31Z</time>
      </trkpt>
      <trkpt lat="43.61337" lon="7.06712">
        <ele>80</ele>
        <time>2012-01-25T12:17:35Z</time>
      </trkpt>
      <trkpt lat="43.61316" lon="7.06733">
        <ele>80</ele>
        <time>2012-01-25T12:17:39Z</time>
      </trkpt>
      <trkpt lat="43.61307" lon="7.06757">
        <ele>80</ele>
        <time>2012-01-25T12:17:43Z</time>
      </trkpt>
      <trkpt lat="43.61299" lon="7.0678">
        <ele>80</ele>
        <time>2012-01-25T12:17:46Z</time>
      </trkpt>
      <trkpt lat="43.61296" lon="7.06788">
        <ele>80</ele>
        <time>2012-01-25T12:17:47Z</time>
      </trkpt>
      <trkpt lat="43.61292" lon="7.06803">
        <ele>80</ele>
        <time>2012-01-25T12:17:49Z</time>
      </trkpt>
      <trkpt lat="43.61288" lon="7.06811">
        <ele>80</ele>
        <time>2012-01-25T12:17:51Z</time>
      </trkpt>
      <trkpt lat="43.61276" lon="7.06827">
        <ele>79.931091308594</ele>
        <time>2012-01-25T12:17:56Z</time>
      </trkpt>
      <trkpt lat="43.61273" lon="7.06831">
        <ele>79.8349609375</ele>
        <time>2012-01-25T12:17:57Z</time>
      </trkpt>
      <trkpt lat="43.61267" lon="7.06843">
        <ele>79.486694335938</ele>
        <time>2012-01-25T12:18:00Z</time>
      </trkpt>
      <trkpt lat="43.61268" lon="7.06848">
        <ele>79.457710266113</ele>
        <time>2012-01-25T12:18:01Z</time>
      </trkpt>
      <trkpt lat="43.61269" lon="7.06857">
        <ele>79.41822052002</ele>
        <time>2012-01-25T12:18:03Z</time>
      </trkpt>
      <trkpt lat="43.61269" lon="7.06864">
        <ele>79.252662658691</ele>
        <time>2012-01-25T12:18:05Z</time>
      </trkpt>
      <trkpt lat="43.61269" lon="7.0687">
        <ele>79.034652709961</ele>
        <time>2012-01-25T12:18:07Z</time>
      </trkpt>
      <trkpt lat="43.61273" lon="7.0689">
        <ele>78.642456054688</ele>
        <time>2012-01-25T12:18:12Z</time>
      </trkpt>
      <trkpt lat="43.61269" lon="7.06911">
        <ele>78.34033203125</ele>
        <time>2012-01-25T12:18:16Z</time>
      </trkpt>
      <trkpt lat="43.61255" lon="7.06935">
        <ele>76.735321044922</ele>
        <time>2012-01-25T12:18:20Z</time>
      </trkpt>
      <trkpt lat="43.6125" lon="7.06946">
        <ele>76</ele>
        <time>2012-01-25T12:18:22Z</time>
      </trkpt>
      <trkpt lat="43.61246" lon="7.06958">
        <ele>76</ele>
        <time>2012-01-25T12:18:24Z</time>
      </trkpt>
      <trkpt lat="43.61243" lon="7.06967">
        <ele>76</ele>
        <time>2012-01-25T12:18:26Z</time>
      </trkpt>
      <trkpt lat="43.61244" lon="7.06972">
        <ele>76</ele>
        <time>2012-01-25T12:18:28Z</time>
      </trkpt>
      <trkpt lat="43.61245" lon="7.06975">
        <ele>75.902320861816</ele>
        <time>2012-01-25T12:18:34Z</time>
      </trkpt>
      <trkpt lat="43.61246" lon="7.06979">
        <ele>75.761558532715</ele>
        <time>2012-01-25T12:18:42Z</time>
      </trkpt>
      <trkpt lat="43.61246" lon="7.06979">
        <ele>75.74439239502</ele>
        <time>2012-01-25T12:18:51Z</time>
      </trkpt>
      <trkpt lat="43.61244" lon="7.06979">
        <ele>75.761558532715</ele>
        <time>2012-01-25T12:19:13Z</time>
      </trkpt>
      <trkpt lat="43.61247" lon="7.06982">
        <ele>75.660278320312</ele>
        <time>2012-01-25T12:21:23Z</time>
      </trkpt>
      <trkpt lat="43.61246" lon="7.06983">
        <ele>75.620796203613</ele>
        <time>2012-01-25T12:21:31Z</time>
      </trkpt>
      <trkpt lat="43.61243" lon="7.06988">
        <ele>75.421669006348</ele>
        <time>2012-01-25T12:21:46Z</time>
      </trkpt>
      <trkpt lat="43.61243" lon="7.06995">
        <ele>75.184776306152</ele>
        <time>2012-01-25T12:21:48Z</time>
      </trkpt>
      <trkpt lat="43.61247" lon="7.07004">
        <ele>74.985626220703</ele>
        <time>2012-01-25T12:21:52Z</time>
      </trkpt>
      <trkpt lat="43.61247" lon="7.07006">
        <ele>74.978385925293</ele>
        <time>2012-01-25T12:21:53Z</time>
      </trkpt>
      <trkpt lat="43.61249" lon="7.07023">
        <ele>74.962860107422</ele>
        <time>2012-01-25T12:22:00Z</time>
      </trkpt>
      <trkpt lat="43.6125" lon="7.07035">
        <ele>74.72119140625</ele>
        <time>2012-01-25T12:22:06Z</time>
      </trkpt>
      <trkpt lat="43.61247" lon="7.07042">
        <ele>74.3916015625</ele>
        <time>2012-01-25T12:22:11Z</time>
      </trkpt>
      <trkpt lat="43.61246" lon="7.07053">
        <ele>73.955581665039</ele>
        <time>2012-01-25T12:23:03Z</time>
      </trkpt>
      <trkpt lat="43.61243" lon="7.07074">
        <ele>73.559677124023</ele>
        <time>2012-01-25T12:23:09Z</time>
      </trkpt>
      <trkpt lat="43.61245" lon="7.07093">
        <ele>73.378067016602</ele>
        <time>2012-01-25T12:23:14Z</time>
      </trkpt>
      <trkpt lat="43.61245" lon="7.07105">
        <ele>72.982986450195</ele>
        <time>2012-01-25T12:23:18Z</time>
      </trkpt>
      <trkpt lat="43.61238" lon="7.07121">
        <ele>72.433486938477</ele>
        <time>2012-01-25T12:23:23Z</time>
      </trkpt>
      <trkpt lat="43.61231" lon="7.07128">
        <ele>71.902099609375</ele>
        <time>2012-01-25T12:23:27Z</time>
      </trkpt>
      <trkpt lat="43.6123" lon="7.07129">
        <ele>71.79761505127</ele>
        <time>2012-01-25T12:23:28Z</time>
      </trkpt>
      <trkpt lat="43.61228" lon="7.07136">
        <ele>71.471946716309</ele>
        <time>2012-01-25T12:23:31Z</time>
      </trkpt>
      <trkpt lat="43.61228" lon="7.07139">
        <ele>71.411575317383</ele>
        <time>2012-01-25T12:23:32Z</time>
      </trkpt>
      <trkpt lat="43.61228" lon="7.07141">
        <ele>71.340293884277</ele>
        <time>2012-01-25T12:23:33Z</time>
      </trkpt>
      <trkpt lat="43.61227" lon="7.07146">
        <ele>71.11026763916</ele>
        <time>2012-01-25T12:23:37Z</time>
      </trkpt>
      <trkpt lat="43.61227" lon="7.07151">
        <ele>70.895690917969</ele>
        <time>2012-01-25T12:23:41Z</time>
      </trkpt>
      <trkpt lat="43.61226" lon="7.07153">
        <ele>70.792694091797</ele>
        <time>2012-01-25T12:23:43Z</time>
      </trkpt>
      <trkpt lat="43.61226" lon="7.07161">
        <ele>70.485420227051</ele>
        <time>2012-01-25T12:23:49Z</time>
      </trkpt>
      <trkpt lat="43.61226" lon="7.07161">
        <ele>70.485420227051</ele>
        <time>2012-01-25T12:23:50Z</time>
      </trkpt>
      <trkpt lat="43.61227" lon="7.07167">
        <ele>70.317192077637</ele>
        <time>2012-01-25T12:23:56Z</time>
      </trkpt>
      <trkpt lat="43.61226" lon="7.07174">
        <ele>69.97730255127</ele>
        <time>2012-01-25T12:24:03Z</time>
      </trkpt>
      <trkpt lat="43.61223" lon="7.07184">
        <ele>69.450302124023</ele>
        <time>2012-01-25T12:24:08Z</time>
      </trkpt>
      <trkpt lat="43.61222" lon="7.07196">
        <ele>68.898773193359</ele>
        <time>2012-01-25T12:24:14Z</time>
      </trkpt>
      <trkpt lat="43.61221" lon="7.07199">
        <ele>68.78751373291</ele>
        <time>2012-01-25T12:24:20Z</time>
      </trkpt>
      <trkpt lat="43.6122" lon="7.0721">
        <ele>68.318717956543</ele>
        <time>2012-01-25T12:24:51Z</time>
      </trkpt>
      <trkpt lat="43.61216" lon="7.07228">
        <ele>67.693733215332</ele>
        <time>2012-01-25T12:24:55Z</time>
      </trkpt>
      <trkpt lat="43.61214" lon="7.07259">
        <ele>66.843597412109</ele>
        <time>2012-01-25T12:24:59Z</time>
      </trkpt>
      <trkpt lat="43.61218" lon="7.07274">
        <ele>66.697685241699</ele>
        <time>2012-01-25T12:25:01Z</time>
      </trkpt>
      <trkpt lat="43.61221" lon="7.07281">
        <ele>66.69694519043</ele>
        <time>2012-01-25T12:25:02Z</time>
      </trkpt>
      <trkpt lat="43.61224" lon="7.07287">
        <ele>66.860763549805</ele>
        <time>2012-01-25T12:25:03Z</time>
      </trkpt>
      <trkpt lat="43.61231" lon="7.07296">
        <ele>67.313949584961</ele>
        <time>2012-01-25T12:25:05Z</time>
      </trkpt>
      <trkpt lat="43.61245" lon="7.07302">
        <ele>68.556777954102</ele>
        <time>2012-01-25T12:25:08Z</time>
      </trkpt>
      <trkpt lat="43.61248" lon="7.07302">
        <ele>68.901817321777</ele>
        <time>2012-01-25T12:25:09Z</time>
      </trkpt>
      <trkpt lat="43.61255" lon="7.07308">
        <ele>70.377647399902</ele>
        <time>2012-01-25T12:25:12Z</time>
      </trkpt>
      <trkpt lat="43.61256" lon="7.07311">
        <ele>70.751129150391</ele>
        <time>2012-01-25T12:25:13Z</time>
      </trkpt>
      <trkpt lat="43.61264" lon="7.07316">
        <ele>72.660568237305</ele>
        <time>2012-01-25T12:25:18Z</time>
      </trkpt>
      <trkpt lat="43.61278" lon="7.07322">
        <ele>75.85807800293</ele>
        <time>2012-01-25T12:25:26Z</time>
      </trkpt>
      <trkpt lat="43.61293" lon="7.07328">
        <ele>77.008209228516</ele>
        <time>2012-01-25T12:25:34Z</time>
      </trkpt>
      <trkpt lat="43.61306" lon="7.07331">
        <ele>78.256927490234</ele>
        <time>2012-01-25T12:25:41Z</time>
      </trkpt>
      <trkpt lat="43.61318" lon="7.07337">
        <ele>79.069946289062</ele>
        <time>2012-01-25T12:25:47Z</time>
      </trkpt>
      <trkpt lat="43.61332" lon="7.0734">
        <ele>80.398292541504</ele>
        <time>2012-01-25T12:25:54Z</time>
      </trkpt>
      <trkpt lat="43.61345" lon="7.07345">
        <ele>82.139175415039</ele>
        <time>2012-01-25T12:26:00Z</time>
      </trkpt>
      <trkpt lat="43.61355" lon="7.07358">
        <ele>82.497970581055</ele>
        <time>2012-01-25T12:26:07Z</time>
      </trkpt>
      <trkpt lat="43.61352" lon="7.07367">
        <ele>81.04613494873</ele>
        <time>2012-01-25T12:26:11Z</time>
      </trkpt>
      <trkpt lat="43.61351" lon="7.0737">
        <ele>80.697174072266</ele>
        <time>2012-01-25T12:26:12Z</time>
      </trkpt>
      <trkpt lat="43.61342" lon="7.07378">
        <ele>78.867050170898</ele>
        <time>2012-01-25T12:26:18Z</time>
      </trkpt>
      <trkpt lat="43.61333" lon="7.07385">
        <ele>77.266296386719</ele>
        <time>2012-01-25T12:26:24Z</time>
      </trkpt>
      <trkpt lat="43.61327" lon="7.07393">
        <ele>76.0302734375</ele>
        <time>2012-01-25T12:26:30Z</time>
      </trkpt>
      <trkpt lat="43.61322" lon="7.07404">
        <ele>75.426025390625</ele>
        <time>2012-01-25T12:26:36Z</time>
      </trkpt>
      <trkpt lat="43.61322" lon="7.07406">
        <ele>75.37109375</ele>
        <time>2012-01-25T12:26:37Z</time>
      </trkpt>
      <trkpt lat="43.61319" lon="7.07415">
        <ele>74.876708984375</ele>
        <time>2012-01-25T12:26:42Z</time>
      </trkpt>
      <trkpt lat="43.61317" lon="7.07418">
        <ele>74.60205078125</ele>
        <time>2012-01-25T12:26:44Z</time>
      </trkpt>
      <trkpt lat="43.61309" lon="7.07425">
        <ele>73.558349609375</ele>
        <time>2012-01-25T12:26:51Z</time>
      </trkpt>
      <trkpt lat="43.61302" lon="7.0743">
        <ele>72.75732421875</ele>
        <time>2012-01-25T12:26:57Z</time>
      </trkpt>
      <trkpt lat="43.613" lon="7.07431">
        <ele>72.565063476562</ele>
        <time>2012-01-25T12:27:01Z</time>
      </trkpt>
      <trkpt lat="43.61299" lon="7.07433">
        <ele>72.510131835938</ele>
        <time>2012-01-25T12:27:03Z</time>
      </trkpt>
      <trkpt lat="43.61301" lon="7.07435">
        <ele>72.6474609375</ele>
        <time>2012-01-25T12:27:08Z</time>
      </trkpt>
      <trkpt lat="43.61306" lon="7.07431">
        <ele>73.009033203125</ele>
        <time>2012-01-25T12:27:13Z</time>
      </trkpt>
      <trkpt lat="43.61306" lon="7.0743">
        <ele>73.06396484375</ele>
        <time>2012-01-25T12:27:14Z</time>
      </trkpt>
      <trkpt lat="43.61305" lon="7.07426">
        <ele>72.97705078125</ele>
        <time>2012-01-25T12:27:18Z</time>
      </trkpt>
      <trkpt lat="43.61303" lon="7.07428">
        <ele>72.784790039062</ele>
        <time>2012-01-25T12:27:21Z</time>
      </trkpt>
      <trkpt lat="43.61302" lon="7.07429">
        <ele>72.75732421875</ele>
        <time>2012-01-25T12:27:22Z</time>
      </trkpt>
      <trkpt lat="43.61302" lon="7.0743">
        <ele>72.729858398438</ele>
        <time>2012-01-25T12:27:23Z</time>
      </trkpt>
      <trkpt lat="43.61305" lon="7.0743">
        <ele>72.949584960938</ele>
        <time>2012-01-25T12:27:28Z</time>
      </trkpt>
      <trkpt lat="43.61305" lon="7.07426">
        <ele>72.949584960938</ele>
        <time>2012-01-25T12:27:33Z</time>
      </trkpt>
      <trkpt lat="43.61304" lon="7.07427">
        <ele>72.8671875</ele>
        <time>2012-01-25T12:27:34Z</time>
      </trkpt>
      <trkpt lat="43.61303" lon="7.07431">
        <ele>72.812255859375</ele>
        <time>2012-01-25T12:27:38Z</time>
      </trkpt>
      <trkpt lat="43.61306" lon="7.07429">
        <ele>73.06396484375</ele>
        <time>2012-01-25T12:27:43Z</time>
      </trkpt>
      <trkpt lat="43.61309" lon="7.07427">
        <ele>73.558349609375</ele>
        <time>2012-01-25T12:27:48Z</time>
      </trkpt>
      <trkpt lat="43.61317" lon="7.07422">
        <ele>74.60205078125</ele>
        <time>2012-01-25T12:27:55Z</time>
      </trkpt>
      <trkpt lat="43.61317" lon="7.07421">
        <ele>74.60205078125</ele>
        <time>2012-01-25T12:27:56Z</time>
      </trkpt>
      <trkpt lat="43.61314" lon="7.0742">
        <ele>74.16259765625</ele>
        <time>2012-01-25T12:27:59Z</time>
      </trkpt>
      <trkpt lat="43.61312" lon="7.07423">
        <ele>73.94287109375</ele>
        <time>2012-01-25T12:28:01Z</time>
      </trkpt>
      <trkpt lat="43.61308" lon="7.07429">
        <ele>73.338623046875</ele>
        <time>2012-01-25T12:28:06Z</time>
      </trkpt>
      <trkpt lat="43.61302" lon="7.07431">
        <ele>72.75732421875</ele>
        <time>2012-01-25T12:28:13Z</time>
      </trkpt>
      <trkpt lat="43.61301" lon="7.0743">
        <ele>72.702392578125</ele>
        <time>2012-01-25T12:28:14Z</time>
      </trkpt>
      <trkpt lat="43.61304" lon="7.07426">
        <ele>72.8671875</ele>
        <time>2012-01-25T12:28:18Z</time>
      </trkpt>
      <trkpt lat="43.61304" lon="7.07429">
        <ele>72.922119140625</ele>
        <time>2012-01-25T12:28:21Z</time>
      </trkpt>
      <trkpt lat="43.61304" lon="7.0743">
        <ele>72.894653320312</ele>
        <time>2012-01-25T12:28:22Z</time>
      </trkpt>
      <trkpt lat="43.61302" lon="7.07433">
        <ele>72.75732421875</ele>
        <time>2012-01-25T12:28:26Z</time>
      </trkpt>
      <trkpt lat="43.61301" lon="7.07433">
        <ele>72.702392578125</ele>
        <time>2012-01-25T12:28:27Z</time>
      </trkpt>
      <trkpt lat="43.61295" lon="7.07429">
        <ele>72.262939453125</ele>
        <time>2012-01-25T12:28:32Z</time>
      </trkpt>
      <trkpt lat="43.61292" lon="7.07432">
        <ele>71.98828125</ele>
        <time>2012-01-25T12:28:34Z</time>
      </trkpt>
      <trkpt lat="43.61282" lon="7.07439">
        <ele>71.301635742188</ele>
        <time>2012-01-25T12:28:38Z</time>
      </trkpt>
      <trkpt lat="43.61261" lon="7.07461">
        <ele>68.527099609375</ele>
        <time>2012-01-25T12:28:46Z</time>
      </trkpt>
      <trkpt lat="43.61243" lon="7.07492">
        <ele>66.944633483887</ele>
        <time>2012-01-25T12:28:53Z</time>
      </trkpt>
      <trkpt lat="43.61224" lon="7.07528">
        <ele>67.216842651367</ele>
        <time>2012-01-25T12:29:01Z</time>
      </trkpt>
      <trkpt lat="43.61198" lon="7.07575">
        <ele>69.569770812988</ele>
        <time>2012-01-25T12:29:11Z</time>
      </trkpt>
      <trkpt lat="43.61176" lon="7.07619">
        <ele>65.287048339844</ele>
        <time>2012-01-25T12:29:19Z</time>
      </trkpt>
      <trkpt lat="43.61164" lon="7.07656">
        <ele>62.913993835449</ele>
        <time>2012-01-25T12:29:25Z</time>
      </trkpt>
      <trkpt lat="43.61162" lon="7.07694">
        <ele>64.167221069336</ele>
        <time>2012-01-25T12:29:31Z</time>
      </trkpt>
      <trkpt lat="43.61165" lon="7.07712">
        <ele>65.917724609375</ele>
        <time>2012-01-25T12:29:34Z</time>
      </trkpt>
      <trkpt lat="43.61173" lon="7.07727">
        <ele>70.273361206055</ele>
        <time>2012-01-25T12:29:37Z</time>
      </trkpt>
      <trkpt lat="43.61176" lon="7.07733">
        <ele>71.893844604492</ele>
        <time>2012-01-25T12:29:38Z</time>
      </trkpt>
      <trkpt lat="43.61193" lon="7.07764">
        <ele>81.387992858887</ele>
        <time>2012-01-25T12:29:44Z</time>
      </trkpt>
      <trkpt lat="43.61205" lon="7.07781">
        <ele>84.471008300781</ele>
        <time>2012-01-25T12:29:48Z</time>
      </trkpt>
      <trkpt lat="43.61211" lon="7.07787">
        <ele>86.540405273438</ele>
        <time>2012-01-25T12:29:50Z</time>
      </trkpt>
      <trkpt lat="43.61218" lon="7.07794">
        <ele>88.83275604248</ele>
        <time>2012-01-25T12:29:53Z</time>
      </trkpt>
      <trkpt lat="43.61219" lon="7.07796">
        <ele>89.293365478516</ele>
        <time>2012-01-25T12:29:54Z</time>
      </trkpt>
      <trkpt lat="43.61223" lon="7.07802">
        <ele>90.865776062012</ele>
        <time>2012-01-25T12:29:58Z</time>
      </trkpt>
      <trkpt lat="43.61224" lon="7.07798">
        <ele>90.927444458008</ele>
        <time>2012-01-25T12:30:02Z</time>
      </trkpt>
      <trkpt lat="43.61221" lon="7.07804">
        <ele>90.510772705078</ele>
        <time>2012-01-25T12:30:06Z</time>
      </trkpt>
      <trkpt lat="43.61223" lon="7.07822">
        <ele>91.801856994629</ele>
        <time>2012-01-25T12:30:10Z</time>
      </trkpt>
      <trkpt lat="43.61226" lon="7.07832">
        <ele>93.034385681152</ele>
        <time>2012-01-25T12:30:12Z</time>
      </trkpt>
      <trkpt lat="43.61232" lon="7.07847">
        <ele>96.041763305664</ele>
        <time>2012-01-25T12:30:16Z</time>
      </trkpt>
      <trkpt lat="43.61226" lon="7.07862">
        <ele>95.862823486328</ele>
        <time>2012-01-25T12:30:20Z</time>
      </trkpt>
      <trkpt lat="43.61228" lon="7.07873">
        <ele>96.884292602539</ele>
        <time>2012-01-25T12:30:23Z</time>
      </trkpt>
      <trkpt lat="43.61236" lon="7.07874">
        <ele>98.182167053223</ele>
        <time>2012-01-25T12:30:26Z</time>
      </trkpt>
      <trkpt lat="43.61238" lon="7.07875">
        <ele>98.632141113281</ele>
        <time>2012-01-25T12:30:27Z</time>
      </trkpt>
      <trkpt lat="43.61256" lon="7.07888">
        <ele>100.23847198486</ele>
        <time>2012-01-25T12:30:34Z</time>
      </trkpt>
      <trkpt lat="43.61275" lon="7.07907">
        <ele>101.52677154541</ele>
        <time>2012-01-25T12:30:42Z</time>
      </trkpt>
      <trkpt lat="43.61292" lon="7.07926">
        <ele>102.17323303223</ele>
        <time>2012-01-25T12:30:49Z</time>
      </trkpt>
      <trkpt lat="43.61306" lon="7.07935">
        <ele>102.70569610596</ele>
        <time>2012-01-25T12:30:54Z</time>
      </trkpt>
      <trkpt lat="43.61333" lon="7.07958">
        <ele>104.48202514648</ele>
        <time>2012-01-25T12:31:04Z</time>
      </trkpt>
      <trkpt lat="43.6136" lon="7.07983">
        <ele>105.93212890625</ele>
        <time>2012-01-25T12:31:13Z</time>
      </trkpt>
      <trkpt lat="43.61393" lon="7.08008">
        <ele>108.07699584961</ele>
        <time>2012-01-25T12:31:23Z</time>
      </trkpt>
      <trkpt lat="43.61415" lon="7.08029">
        <ele>109.87200927734</ele>
        <time>2012-01-25T12:31:30Z</time>
      </trkpt>
      <trkpt lat="43.61443" lon="7.08043">
        <ele>111.86474609375</ele>
        <time>2012-01-25T12:31:38Z</time>
      </trkpt>
      <trkpt lat="43.61461" lon="7.08051">
        <ele>113.70961761475</ele>
        <time>2012-01-25T12:31:42Z</time>
      </trkpt>
      <trkpt lat="43.61481" lon="7.08064">
        <ele>116.3127746582</ele>
        <time>2012-01-25T12:31:47Z</time>
      </trkpt>
      <trkpt lat="43.61484" lon="7.08067">
        <ele>116.8274230957</ele>
        <time>2012-01-25T12:31:48Z</time>
      </trkpt>
      <trkpt lat="43.61495" lon="7.08076">
        <ele>118.9333190918</ele>
        <time>2012-01-25T12:31:52Z</time>
      </trkpt>
      <trkpt lat="43.615" lon="7.08082">
        <ele>119.95834350586</ele>
        <time>2012-01-25T12:31:54Z</time>
      </trkpt>
      <trkpt lat="43.61517" lon="7.08107">
        <ele>120.61029052734</ele>
        <time>2012-01-25T12:32:01Z</time>
      </trkpt>
      <trkpt lat="43.6154" lon="7.0814">
        <ele>121.44799804688</ele>
        <time>2012-01-25T12:32:09Z</time>
      </trkpt>
      <trkpt lat="43.61543" lon="7.08145">
        <ele>121.55786132812</ele>
        <time>2012-01-25T12:32:10Z</time>
      </trkpt>
      <trkpt lat="43.61553" lon="7.08172">
        <ele>121.91491699219</ele>
        <time>2012-01-25T12:32:14Z</time>
      </trkpt>
      <trkpt lat="43.61568" lon="7.08217">
        <ele>121.64361572266</ele>
        <time>2012-01-25T12:32:19Z</time>
      </trkpt>
      <trkpt lat="43.61579" lon="7.08254">
        <ele>120.97664642334</ele>
        <time>2012-01-25T12:32:23Z</time>
      </trkpt>
      <trkpt lat="43.61583" lon="7.08262">
        <ele>120.99992370606</ele>
        <time>2012-01-25T12:32:24Z</time>
      </trkpt>
      <trkpt lat="43.61589" lon="7.08279">
        <ele>120.97353363037</ele>
        <time>2012-01-25T12:32:26Z</time>
      </trkpt>
      <trkpt lat="43.61591" lon="7.08299">
        <ele>120.24397277832</ele>
        <time>2012-01-25T12:32:28Z</time>
      </trkpt>
      <trkpt lat="43.61582" lon="7.08351">
        <ele>118.36084747315</ele>
        <time>2012-01-25T12:32:33Z</time>
      </trkpt>
      <trkpt lat="43.6157" lon="7.08378">
        <ele>117.71711730957</ele>
        <time>2012-01-25T12:32:36Z</time>
      </trkpt>
      <trkpt lat="43.61566" lon="7.08386">
        <ele>117.43725585938</ele>
        <time>2012-01-25T12:32:37Z</time>
      </trkpt>
      <trkpt lat="43.61539" lon="7.08428">
        <ele>115.99359893799</ele>
        <time>2012-01-25T12:32:43Z</time>
      </trkpt>
      <trkpt lat="43.61523" lon="7.08465">
        <ele>114.01859283447</ele>
        <time>2012-01-25T12:32:49Z</time>
      </trkpt>
      <trkpt lat="43.61519" lon="7.08492">
        <ele>112.95862579346</ele>
        <time>2012-01-25T12:32:53Z</time>
      </trkpt>
      <trkpt lat="43.61518" lon="7.08518">
        <ele>112.42589569092</ele>
        <time>2012-01-25T12:32:57Z</time>
      </trkpt>
      <trkpt lat="43.61517" lon="7.08525">
        <ele>112.29029846191</ele>
        <time>2012-01-25T12:32:58Z</time>
      </trkpt>
      <trkpt lat="43.61516" lon="7.08537">
        <ele>111.94032287598</ele>
        <time>2012-01-25T12:33:00Z</time>
      </trkpt>
      <trkpt lat="43.61511" lon="7.08559">
        <ele>111.28070831299</ele>
        <time>2012-01-25T12:33:04Z</time>
      </trkpt>
      <trkpt lat="43.61509" lon="7.08573">
        <ele>110.69534301758</ele>
        <time>2012-01-25T12:33:07Z</time>
      </trkpt>
      <trkpt lat="43.61508" lon="7.0858">
        <ele>110.4069519043</ele>
        <time>2012-01-25T12:33:09Z</time>
      </trkpt>
      <trkpt lat="43.61501" lon="7.08601">
        <ele>109.4095993042</ele>
        <time>2012-01-25T12:33:14Z</time>
      </trkpt>
      <trkpt lat="43.61491" lon="7.08632">
        <ele>108.66271972656</ele>
        <time>2012-01-25T12:33:21Z</time>
      </trkpt>
      <trkpt lat="43.61488" lon="7.08651">
        <ele>108.14710235596</ele>
        <time>2012-01-25T12:33:25Z</time>
      </trkpt>
      <trkpt lat="43.61486" lon="7.08654">
        <ele>107.953125</ele>
        <time>2012-01-25T12:33:26Z</time>
      </trkpt>
      <trkpt lat="43.6148" lon="7.08664">
        <ele>107.39007568359</ele>
        <time>2012-01-25T12:33:29Z</time>
      </trkpt>
      <trkpt lat="43.61486" lon="7.08667">
        <ele>107.48277282715</ele>
        <time>2012-01-25T12:33:32Z</time>
      </trkpt>
      <trkpt lat="43.61493" lon="7.08669">
        <ele>107.66816711426</ele>
        <time>2012-01-25T12:33:35Z</time>
      </trkpt>
      <trkpt lat="43.61502" lon="7.08673">
        <ele>107.82094573975</ele>
        <time>2012-01-25T12:33:38Z</time>
      </trkpt>
      <trkpt lat="43.61513" lon="7.08677">
        <ele>108.0938873291</ele>
        <time>2012-01-25T12:33:42Z</time>
      </trkpt>
    </trkseg>
  </trk>
</gpx>